<?xml version="1.0" encoding="UTF-8" standalone="no" ?>
<gpx xmlns="http://www.topografix.com/GPX/1/1" xmlns:xsi="http://www.w3.org/2001/XMLSchema-instance" xsi:schemaLocation="http://www.topografix.com/GPX/1/1 http://www.topografix.com/GPX/1/1/gpx.xsd" version="1.1" creator="VisuGPX - https://www.visugpx.com">
  <metadata>
    <name>Enduro Gourdon 2015</name>
    <desc><![CDATA[3 Speciales magiques... Merci Mr Tabart]]></desc>
  </metadata>
  <trk>
    <name><![CDATA[2015-09-20 14:17:11]]></name>
    <trkseg>
      <trkpt lat="43.72166" lon="6.9751">
        <ele>746.08</ele>
        <time>2015-09-20T07:14:02Z</time>
      </trkpt>
      <trkpt lat="43.72166" lon="6.97508">
        <ele>746.05</ele>
        <time>2015-09-20T07:14:03Z</time>
      </trkpt>
      <trkpt lat="43.72144" lon="6.97464">
        <ele>748.08</ele>
        <time>2015-09-20T07:14:18Z</time>
      </trkpt>
      <trkpt lat="43.72142" lon="6.97438">
        <ele>749.27</ele>
        <time>2015-09-20T07:14:27Z</time>
      </trkpt>
      <trkpt lat="43.72167" lon="6.9741">
        <ele>751.27</ele>
        <time>2015-09-20T07:14:42Z</time>
      </trkpt>
      <trkpt lat="43.72194" lon="6.97397">
        <ele>752.74</ele>
        <time>2015-09-20T07:14:53Z</time>
      </trkpt>
      <trkpt lat="43.72222" lon="6.97389">
        <ele>754.04</ele>
        <time>2015-09-20T07:15:05Z</time>
      </trkpt>
      <trkpt lat="43.7226" lon="6.97373">
        <ele>755.76</ele>
        <time>2015-09-20T07:15:20Z</time>
      </trkpt>
      <trkpt lat="43.72278" lon="6.97342">
        <ele>757.5</ele>
        <time>2015-09-20T07:15:33Z</time>
      </trkpt>
      <trkpt lat="43.72282" lon="6.97286">
        <ele>759.75</ele>
        <time>2015-09-20T07:15:50Z</time>
      </trkpt>
      <trkpt lat="43.72277" lon="6.97233">
        <ele>761.83</ele>
        <time>2015-09-20T07:16:06Z</time>
      </trkpt>
      <trkpt lat="43.72282" lon="6.97189">
        <ele>764.3</ele>
        <time>2015-09-20T07:16:21Z</time>
      </trkpt>
      <trkpt lat="43.72293" lon="6.97145">
        <ele>765.97</ele>
        <time>2015-09-20T07:16:35Z</time>
      </trkpt>
      <trkpt lat="43.72298" lon="6.97086">
        <ele>768.26</ele>
        <time>2015-09-20T07:16:53Z</time>
      </trkpt>
      <trkpt lat="43.72296" lon="6.97029">
        <ele>770.83</ele>
        <time>2015-09-20T07:17:11Z</time>
      </trkpt>
      <trkpt lat="43.72291" lon="6.96976">
        <ele>772.93</ele>
        <time>2015-09-20T07:17:27Z</time>
      </trkpt>
      <trkpt lat="43.72289" lon="6.96924">
        <ele>775.03</ele>
        <time>2015-09-20T07:17:42Z</time>
      </trkpt>
      <trkpt lat="43.7229" lon="6.96878">
        <ele>776.63</ele>
        <time>2015-09-20T07:17:55Z</time>
      </trkpt>
      <trkpt lat="43.72284" lon="6.96823">
        <ele>779.02</ele>
        <time>2015-09-20T07:18:11Z</time>
      </trkpt>
      <trkpt lat="43.72282" lon="6.96771">
        <ele>781.24</ele>
        <time>2015-09-20T07:18:27Z</time>
      </trkpt>
      <trkpt lat="43.72309" lon="6.96744">
        <ele>783.68</ele>
        <time>2015-09-20T07:18:41Z</time>
      </trkpt>
      <trkpt lat="43.72346" lon="6.96757">
        <ele>785.66</ele>
        <time>2015-09-20T07:18:55Z</time>
      </trkpt>
      <trkpt lat="43.72369" lon="6.96808">
        <ele>788.35</ele>
        <time>2015-09-20T07:19:12Z</time>
      </trkpt>
      <trkpt lat="43.72384" lon="6.96859">
        <ele>790.68</ele>
        <time>2015-09-20T07:19:28Z</time>
      </trkpt>
      <trkpt lat="43.72399" lon="6.96911">
        <ele>792.99</ele>
        <time>2015-09-20T07:19:45Z</time>
      </trkpt>
      <trkpt lat="43.72416" lon="6.96954">
        <ele>795.13</ele>
        <time>2015-09-20T07:20:00Z</time>
      </trkpt>
      <trkpt lat="43.7244" lon="6.96994">
        <ele>797.3</ele>
        <time>2015-09-20T07:20:15Z</time>
      </trkpt>
      <trkpt lat="43.7247" lon="6.97009">
        <ele>799.31</ele>
        <time>2015-09-20T07:20:28Z</time>
      </trkpt>
      <trkpt lat="43.72492" lon="6.97044">
        <ele>801.53</ele>
        <time>2015-09-20T07:20:42Z</time>
      </trkpt>
      <trkpt lat="43.72482" lon="6.97097">
        <ele>804.21</ele>
        <time>2015-09-20T07:20:58Z</time>
      </trkpt>
      <trkpt lat="43.72464" lon="6.97137">
        <ele>806.41</ele>
        <time>2015-09-20T07:21:12Z</time>
      </trkpt>
      <trkpt lat="43.72478" lon="6.97174">
        <ele>808.64</ele>
        <time>2015-09-20T07:21:26Z</time>
      </trkpt>
      <trkpt lat="43.72504" lon="6.97162">
        <ele>810.19</ele>
        <time>2015-09-20T07:21:38Z</time>
      </trkpt>
      <trkpt lat="43.72531" lon="6.97124">
        <ele>812.84</ele>
        <time>2015-09-20T07:21:53Z</time>
      </trkpt>
      <trkpt lat="43.72554" lon="6.97087">
        <ele>815.37</ele>
        <time>2015-09-20T07:22:08Z</time>
      </trkpt>
      <trkpt lat="43.72582" lon="6.97045">
        <ele>818.33</ele>
        <time>2015-09-20T07:22:25Z</time>
      </trkpt>
      <trkpt lat="43.72607" lon="6.97005">
        <ele>821.18</ele>
        <time>2015-09-20T07:22:41Z</time>
      </trkpt>
      <trkpt lat="43.72628" lon="6.96967">
        <ele>823.58</ele>
        <time>2015-09-20T07:22:56Z</time>
      </trkpt>
      <trkpt lat="43.72647" lon="6.96923">
        <ele>826.33</ele>
        <time>2015-09-20T07:23:12Z</time>
      </trkpt>
      <trkpt lat="43.72664" lon="6.96885">
        <ele>829.28</ele>
        <time>2015-09-20T07:23:27Z</time>
      </trkpt>
      <trkpt lat="43.72683" lon="6.96841">
        <ele>832.22</ele>
        <time>2015-09-20T07:23:44Z</time>
      </trkpt>
      <trkpt lat="43.72704" lon="6.96791">
        <ele>834.97</ele>
        <time>2015-09-20T07:24:03Z</time>
      </trkpt>
      <trkpt lat="43.72715" lon="6.96743">
        <ele>837.5</ele>
        <time>2015-09-20T07:24:20Z</time>
      </trkpt>
      <trkpt lat="43.72721" lon="6.96695">
        <ele>839.89</ele>
        <time>2015-09-20T07:24:36Z</time>
      </trkpt>
      <trkpt lat="43.72726" lon="6.96642">
        <ele>842.75</ele>
        <time>2015-09-20T07:24:53Z</time>
      </trkpt>
      <trkpt lat="43.72731" lon="6.96593">
        <ele>845.24</ele>
        <time>2015-09-20T07:25:09Z</time>
      </trkpt>
      <trkpt lat="43.72734" lon="6.96544">
        <ele>847.65</ele>
        <time>2015-09-20T07:25:25Z</time>
      </trkpt>
      <trkpt lat="43.72732" lon="6.96487">
        <ele>850.18</ele>
        <time>2015-09-20T07:25:43Z</time>
      </trkpt>
      <trkpt lat="43.72733" lon="6.96442">
        <ele>852.49</ele>
        <time>2015-09-20T07:25:57Z</time>
      </trkpt>
      <trkpt lat="43.72731" lon="6.96381">
        <ele>855.12</ele>
        <time>2015-09-20T07:26:16Z</time>
      </trkpt>
      <trkpt lat="43.72729" lon="6.96334">
        <ele>857.47</ele>
        <time>2015-09-20T07:26:31Z</time>
      </trkpt>
      <trkpt lat="43.72734" lon="6.96284">
        <ele>859.94</ele>
        <time>2015-09-20T07:26:46Z</time>
      </trkpt>
      <trkpt lat="43.72733" lon="6.96228">
        <ele>862.49</ele>
        <time>2015-09-20T07:27:04Z</time>
      </trkpt>
      <trkpt lat="43.72751" lon="6.96177">
        <ele>865.1</ele>
        <time>2015-09-20T07:27:21Z</time>
      </trkpt>
      <trkpt lat="43.72771" lon="6.96143">
        <ele>867.33</ele>
        <time>2015-09-20T07:27:36Z</time>
      </trkpt>
      <trkpt lat="43.72793" lon="6.9611">
        <ele>869.94</ele>
        <time>2015-09-20T07:27:53Z</time>
      </trkpt>
      <trkpt lat="43.72818" lon="6.96092">
        <ele>871.91</ele>
        <time>2015-09-20T07:28:07Z</time>
      </trkpt>
      <trkpt lat="43.72848" lon="6.96072">
        <ele>874.21</ele>
        <time>2015-09-20T07:28:23Z</time>
      </trkpt>
      <trkpt lat="43.72881" lon="6.96054">
        <ele>876.59</ele>
        <time>2015-09-20T07:28:39Z</time>
      </trkpt>
      <trkpt lat="43.72904" lon="6.96031">
        <ele>878.47</ele>
        <time>2015-09-20T07:28:52Z</time>
      </trkpt>
      <trkpt lat="43.72932" lon="6.96014">
        <ele>880.37</ele>
        <time>2015-09-20T07:29:06Z</time>
      </trkpt>
      <trkpt lat="43.72969" lon="6.95993">
        <ele>883.29</ele>
        <time>2015-09-20T07:29:25Z</time>
      </trkpt>
      <trkpt lat="43.72998" lon="6.95979">
        <ele>885.53</ele>
        <time>2015-09-20T07:29:39Z</time>
      </trkpt>
      <trkpt lat="43.73029" lon="6.95968">
        <ele>888.24</ele>
        <time>2015-09-20T07:29:56Z</time>
      </trkpt>
      <trkpt lat="43.73067" lon="6.95953">
        <ele>891.32</ele>
        <time>2015-09-20T07:30:13Z</time>
      </trkpt>
      <trkpt lat="43.73102" lon="6.95929">
        <ele>893.74</ele>
        <time>2015-09-20T07:30:27Z</time>
      </trkpt>
      <trkpt lat="43.73136" lon="6.95907">
        <ele>896.46</ele>
        <time>2015-09-20T07:30:42Z</time>
      </trkpt>
      <trkpt lat="43.73174" lon="6.95884">
        <ele>899.55</ele>
        <time>2015-09-20T07:30:59Z</time>
      </trkpt>
      <trkpt lat="43.73199" lon="6.9586">
        <ele>901.68</ele>
        <time>2015-09-20T07:31:12Z</time>
      </trkpt>
      <trkpt lat="43.73225" lon="6.95831">
        <ele>904.25</ele>
        <time>2015-09-20T07:31:28Z</time>
      </trkpt>
      <trkpt lat="43.73246" lon="6.95809">
        <ele>906.38</ele>
        <time>2015-09-20T07:31:42Z</time>
      </trkpt>
      <trkpt lat="43.73271" lon="6.95792">
        <ele>908.57</ele>
        <time>2015-09-20T07:31:56Z</time>
      </trkpt>
      <trkpt lat="43.73309" lon="6.95796">
        <ele>911.17</ele>
        <time>2015-09-20T07:32:13Z</time>
      </trkpt>
      <trkpt lat="43.73337" lon="6.95799">
        <ele>913.54</ele>
        <time>2015-09-20T07:32:28Z</time>
      </trkpt>
      <trkpt lat="43.73364" lon="6.95805">
        <ele>915.82</ele>
        <time>2015-09-20T07:32:42Z</time>
      </trkpt>
      <trkpt lat="43.73392" lon="6.95786">
        <ele>917.78</ele>
        <time>2015-09-20T07:32:57Z</time>
      </trkpt>
      <trkpt lat="43.73395" lon="6.95753">
        <ele>919.93</ele>
        <time>2015-09-20T07:33:11Z</time>
      </trkpt>
      <trkpt lat="43.73384" lon="6.95726">
        <ele>921.42</ele>
        <time>2015-09-20T07:33:23Z</time>
      </trkpt>
      <trkpt lat="43.73382" lon="6.95681">
        <ele>923.45</ele>
        <time>2015-09-20T07:33:39Z</time>
      </trkpt>
      <trkpt lat="43.73397" lon="6.95644">
        <ele>925.47</ele>
        <time>2015-09-20T07:33:53Z</time>
      </trkpt>
      <trkpt lat="43.73418" lon="6.95614">
        <ele>927.61</ele>
        <time>2015-09-20T07:34:07Z</time>
      </trkpt>
      <trkpt lat="43.7344" lon="6.95589">
        <ele>929.68</ele>
        <time>2015-09-20T07:34:21Z</time>
      </trkpt>
      <trkpt lat="43.73457" lon="6.95555">
        <ele>931.97</ele>
        <time>2015-09-20T07:34:36Z</time>
      </trkpt>
      <trkpt lat="43.73462" lon="6.95502">
        <ele>934.55</ele>
        <time>2015-09-20T07:34:55Z</time>
      </trkpt>
      <trkpt lat="43.73458" lon="6.95455">
        <ele>936.98</ele>
        <time>2015-09-20T07:35:12Z</time>
      </trkpt>
      <trkpt lat="43.73459" lon="6.95412">
        <ele>939.38</ele>
        <time>2015-09-20T07:35:27Z</time>
      </trkpt>
      <trkpt lat="43.73458" lon="6.95358">
        <ele>942.11</ele>
        <time>2015-09-20T07:35:44Z</time>
      </trkpt>
      <trkpt lat="43.73474" lon="6.95316">
        <ele>944.26</ele>
        <time>2015-09-20T07:35:58Z</time>
      </trkpt>
      <trkpt lat="43.73498" lon="6.95283">
        <ele>946.43</ele>
        <time>2015-09-20T07:36:12Z</time>
      </trkpt>
      <trkpt lat="43.73524" lon="6.95242">
        <ele>949.45</ele>
        <time>2015-09-20T07:36:29Z</time>
      </trkpt>
      <trkpt lat="43.7355" lon="6.95207">
        <ele>951.95</ele>
        <time>2015-09-20T07:36:44Z</time>
      </trkpt>
      <trkpt lat="43.73573" lon="6.95182">
        <ele>954.22</ele>
        <time>2015-09-20T07:36:57Z</time>
      </trkpt>
      <trkpt lat="43.73594" lon="6.95161">
        <ele>956.39</ele>
        <time>2015-09-20T07:37:09Z</time>
      </trkpt>
      <trkpt lat="43.73611" lon="6.95126">
        <ele>958.93</ele>
        <time>2015-09-20T07:37:23Z</time>
      </trkpt>
      <trkpt lat="43.73594" lon="6.95105">
        <ele>960.71</ele>
        <time>2015-09-20T07:37:35Z</time>
      </trkpt>
      <trkpt lat="43.73557" lon="6.95104">
        <ele>962.89</ele>
        <time>2015-09-20T07:37:51Z</time>
      </trkpt>
      <trkpt lat="43.73526" lon="6.95104">
        <ele>965.16</ele>
        <time>2015-09-20T07:38:05Z</time>
      </trkpt>
      <trkpt lat="43.73492" lon="6.95105">
        <ele>967.48</ele>
        <time>2015-09-20T07:38:20Z</time>
      </trkpt>
      <trkpt lat="43.73458" lon="6.95102">
        <ele>970.1</ele>
        <time>2015-09-20T07:38:35Z</time>
      </trkpt>
      <trkpt lat="43.73422" lon="6.95083">
        <ele>972.92</ele>
        <time>2015-09-20T07:38:51Z</time>
      </trkpt>
      <trkpt lat="43.73393" lon="6.95084">
        <ele>975.25</ele>
        <time>2015-09-20T07:39:04Z</time>
      </trkpt>
      <trkpt lat="43.73369" lon="6.95121">
        <ele>977.29</ele>
        <time>2015-09-20T07:39:17Z</time>
      </trkpt>
      <trkpt lat="43.73344" lon="6.95158">
        <ele>979.59</ele>
        <time>2015-09-20T07:39:32Z</time>
      </trkpt>
      <trkpt lat="43.73313" lon="6.95181">
        <ele>982.51</ele>
        <time>2015-09-20T07:39:48Z</time>
      </trkpt>
      <trkpt lat="43.7328" lon="6.95182">
        <ele>985.07</ele>
        <time>2015-09-20T07:40:03Z</time>
      </trkpt>
      <trkpt lat="43.73242" lon="6.95176">
        <ele>987.56</ele>
        <time>2015-09-20T07:40:18Z</time>
      </trkpt>
      <trkpt lat="43.73207" lon="6.95173">
        <ele>990.19</ele>
        <time>2015-09-20T07:40:33Z</time>
      </trkpt>
      <trkpt lat="43.73171" lon="6.95193">
        <ele>993.38</ele>
        <time>2015-09-20T07:40:50Z</time>
      </trkpt>
      <trkpt lat="43.73164" lon="6.95244">
        <ele>995.68</ele>
        <time>2015-09-20T07:41:04Z</time>
      </trkpt>
      <trkpt lat="43.73159" lon="6.95291">
        <ele>998.29</ele>
        <time>2015-09-20T07:41:18Z</time>
      </trkpt>
      <trkpt lat="43.73136" lon="6.95334">
        <ele>1000.73</ele>
        <time>2015-09-20T07:41:34Z</time>
      </trkpt>
      <trkpt lat="43.73111" lon="6.95335">
        <ele>1003.16</ele>
        <time>2015-09-20T07:41:46Z</time>
      </trkpt>
      <trkpt lat="43.73117" lon="6.953">
        <ele>1004.85</ele>
        <time>2015-09-20T07:41:57Z</time>
      </trkpt>
      <trkpt lat="43.7313" lon="6.95256">
        <ele>1007.19</ele>
        <time>2015-09-20T07:42:12Z</time>
      </trkpt>
      <trkpt lat="43.7313" lon="6.9525">
        <ele>1007.42</ele>
        <time>2015-09-20T07:42:14Z</time>
      </trkpt>
      <trkpt lat="43.7311" lon="6.95258">
        <ele>1010.36</ele>
        <time>2015-09-20T07:42:26Z</time>
      </trkpt>
      <trkpt lat="43.7308" lon="6.9529">
        <ele>1011.96</ele>
        <time>2015-09-20T07:42:41Z</time>
      </trkpt>
      <trkpt lat="43.73056" lon="6.95284">
        <ele>1014.71</ele>
        <time>2015-09-20T07:42:52Z</time>
      </trkpt>
      <trkpt lat="43.73019" lon="6.95266">
        <ele>1015.54</ele>
        <time>2015-09-20T07:43:08Z</time>
      </trkpt>
      <trkpt lat="43.72991" lon="6.95267">
        <ele>1017.33</ele>
        <time>2015-09-20T07:43:20Z</time>
      </trkpt>
      <trkpt lat="43.72966" lon="6.95261">
        <ele>1020.99</ele>
        <time>2015-09-20T07:43:32Z</time>
      </trkpt>
      <trkpt lat="43.72957" lon="6.9525">
        <ele>1022.76</ele>
        <time>2015-09-20T07:43:39Z</time>
      </trkpt>
      <trkpt lat="43.72963" lon="6.95236">
        <ele>1023.95</ele>
        <time>2015-09-20T07:43:46Z</time>
      </trkpt>
      <trkpt lat="43.72976" lon="6.95206">
        <ele>1027.23</ele>
        <time>2015-09-20T07:44:01Z</time>
      </trkpt>
      <trkpt lat="43.72978" lon="6.95201">
        <ele>1027.65</ele>
        <time>2015-09-20T07:44:03Z</time>
      </trkpt>
      <trkpt lat="43.72998" lon="6.95173">
        <ele>1030</ele>
        <time>2015-09-20T07:44:19Z</time>
      </trkpt>
      <trkpt lat="43.72989" lon="6.9515">
        <ele>1032.04</ele>
        <time>2015-09-20T07:44:31Z</time>
      </trkpt>
      <trkpt lat="43.72965" lon="6.95147">
        <ele>1034.01</ele>
        <time>2015-09-20T07:44:45Z</time>
      </trkpt>
      <trkpt lat="43.72938" lon="6.95142">
        <ele>1036.97</ele>
        <time>2015-09-20T07:45:00Z</time>
      </trkpt>
      <trkpt lat="43.72904" lon="6.95138">
        <ele>1040.25</ele>
        <time>2015-09-20T07:45:19Z</time>
      </trkpt>
      <trkpt lat="43.7288" lon="6.95122">
        <ele>1042.34</ele>
        <time>2015-09-20T07:45:34Z</time>
      </trkpt>
      <trkpt lat="43.72882" lon="6.95113">
        <ele>1042.9</ele>
        <time>2015-09-20T07:45:38Z</time>
      </trkpt>
      <trkpt lat="43.72907" lon="6.95083">
        <ele>1045.63</ele>
        <time>2015-09-20T07:45:55Z</time>
      </trkpt>
      <trkpt lat="43.72931" lon="6.95058">
        <ele>1047.33</ele>
        <time>2015-09-20T07:46:09Z</time>
      </trkpt>
      <trkpt lat="43.72956" lon="6.95031">
        <ele>1049.83</ele>
        <time>2015-09-20T07:46:25Z</time>
      </trkpt>
      <trkpt lat="43.72973" lon="6.94999">
        <ele>1052.75</ele>
        <time>2015-09-20T07:46:39Z</time>
      </trkpt>
      <trkpt lat="43.72991" lon="6.94962">
        <ele>1055.04</ele>
        <time>2015-09-20T07:46:55Z</time>
      </trkpt>
      <trkpt lat="43.72996" lon="6.94948">
        <ele>1055.98</ele>
        <time>2015-09-20T07:47:01Z</time>
      </trkpt>
      <trkpt lat="43.72986" lon="6.94933">
        <ele>1057.71</ele>
        <time>2015-09-20T07:47:09Z</time>
      </trkpt>
      <trkpt lat="43.72957" lon="6.94927">
        <ele>1060.77</ele>
        <time>2015-09-20T07:47:25Z</time>
      </trkpt>
      <trkpt lat="43.72926" lon="6.94927">
        <ele>1063.6</ele>
        <time>2015-09-20T07:47:42Z</time>
      </trkpt>
      <trkpt lat="43.72896" lon="6.94925">
        <ele>1066.17</ele>
        <time>2015-09-20T07:47:57Z</time>
      </trkpt>
      <trkpt lat="43.72872" lon="6.94916">
        <ele>1068.21</ele>
        <time>2015-09-20T07:48:10Z</time>
      </trkpt>
      <trkpt lat="43.72855" lon="6.94896">
        <ele>1071.22</ele>
        <time>2015-09-20T07:48:23Z</time>
      </trkpt>
      <trkpt lat="43.72854" lon="6.94871">
        <ele>1073.43</ele>
        <time>2015-09-20T07:48:34Z</time>
      </trkpt>
      <trkpt lat="43.72849" lon="6.94845">
        <ele>1076.29</ele>
        <time>2015-09-20T07:48:48Z</time>
      </trkpt>
      <trkpt lat="43.72832" lon="6.94813">
        <ele>1077.85</ele>
        <time>2015-09-20T07:49:03Z</time>
      </trkpt>
      <trkpt lat="43.72836" lon="6.94776">
        <ele>1080.32</ele>
        <time>2015-09-20T07:49:18Z</time>
      </trkpt>
      <trkpt lat="43.72829" lon="6.94753">
        <ele>1082.64</ele>
        <time>2015-09-20T07:49:30Z</time>
      </trkpt>
      <trkpt lat="43.72816" lon="6.94732">
        <ele>1085.46</ele>
        <time>2015-09-20T07:49:44Z</time>
      </trkpt>
      <trkpt lat="43.728" lon="6.94702">
        <ele>1088.07</ele>
        <time>2015-09-20T07:50:00Z</time>
      </trkpt>
      <trkpt lat="43.72792" lon="6.94668">
        <ele>1090.32</ele>
        <time>2015-09-20T07:50:15Z</time>
      </trkpt>
      <trkpt lat="43.72784" lon="6.94639">
        <ele>1092.38</ele>
        <time>2015-09-20T07:50:29Z</time>
      </trkpt>
      <trkpt lat="43.72778" lon="6.9461">
        <ele>1094.23</ele>
        <time>2015-09-20T07:50:42Z</time>
      </trkpt>
      <trkpt lat="43.72781" lon="6.94579">
        <ele>1096.98</ele>
        <time>2015-09-20T07:50:56Z</time>
      </trkpt>
      <trkpt lat="43.72782" lon="6.94539">
        <ele>1098.53</ele>
        <time>2015-09-20T07:51:12Z</time>
      </trkpt>
      <trkpt lat="43.7279" lon="6.94495">
        <ele>1099.32</ele>
        <time>2015-09-20T07:51:27Z</time>
      </trkpt>
      <trkpt lat="43.72796" lon="6.9444">
        <ele>1099.72</ele>
        <time>2015-09-20T07:51:41Z</time>
      </trkpt>
      <trkpt lat="43.72798" lon="6.94399">
        <ele>1100.47</ele>
        <time>2015-09-20T07:51:54Z</time>
      </trkpt>
      <trkpt lat="43.72797" lon="6.94365">
        <ele>1102.85</ele>
        <time>2015-09-20T07:52:06Z</time>
      </trkpt>
      <trkpt lat="43.72796" lon="6.94317">
        <ele>1103.6</ele>
        <time>2015-09-20T07:52:21Z</time>
      </trkpt>
      <trkpt lat="43.72798" lon="6.9427">
        <ele>1104.72</ele>
        <time>2015-09-20T07:52:35Z</time>
      </trkpt>
      <trkpt lat="43.72786" lon="6.94229">
        <ele>1105.34</ele>
        <time>2015-09-20T07:52:47Z</time>
      </trkpt>
      <trkpt lat="43.72785" lon="6.94198">
        <ele>1107.44</ele>
        <time>2015-09-20T07:52:59Z</time>
      </trkpt>
      <trkpt lat="43.72786" lon="6.94178">
        <ele>1109.19</ele>
        <time>2015-09-20T07:53:08Z</time>
      </trkpt>
      <trkpt lat="43.72786" lon="6.94155">
        <ele>1111.61</ele>
        <time>2015-09-20T07:53:21Z</time>
      </trkpt>
      <trkpt lat="43.72783" lon="6.94142">
        <ele>1114.15</ele>
        <time>2015-09-20T07:53:31Z</time>
      </trkpt>
      <trkpt lat="43.72778" lon="6.94129">
        <ele>1115.62</ele>
        <time>2015-09-20T07:53:47Z</time>
      </trkpt>
      <trkpt lat="43.72775" lon="6.94107">
        <ele>1117.15</ele>
        <time>2015-09-20T07:54:04Z</time>
      </trkpt>
      <trkpt lat="43.72778" lon="6.94099">
        <ele>1117.88</ele>
        <time>2015-09-20T07:54:13Z</time>
      </trkpt>
      <trkpt lat="43.72782" lon="6.94092">
        <ele>1120.07</ele>
        <time>2015-09-20T07:54:17Z</time>
      </trkpt>
      <trkpt lat="43.72785" lon="6.94086">
        <ele>1118.2</ele>
        <time>2015-09-20T07:54:20Z</time>
      </trkpt>
      <trkpt lat="43.72786" lon="6.94084">
        <ele>1118.16</ele>
        <time>2015-09-20T07:54:21Z</time>
      </trkpt>
      <trkpt lat="43.72795" lon="6.94053">
        <ele>1120.77</ele>
        <time>2015-09-20T07:54:38Z</time>
      </trkpt>
      <trkpt lat="43.72807" lon="6.94025">
        <ele>1122.86</ele>
        <time>2015-09-20T07:54:54Z</time>
      </trkpt>
      <trkpt lat="43.72821" lon="6.94007">
        <ele>1124.09</ele>
        <time>2015-09-20T07:55:07Z</time>
      </trkpt>
      <trkpt lat="43.72835" lon="6.93988">
        <ele>1125.33</ele>
        <time>2015-09-20T07:55:19Z</time>
      </trkpt>
      <trkpt lat="43.72835" lon="6.93986">
        <ele>1126.11</ele>
        <time>2015-09-20T07:55:21Z</time>
      </trkpt>
      <trkpt lat="43.72812" lon="6.93982">
        <ele>1128.17</ele>
        <time>2015-09-20T07:55:36Z</time>
      </trkpt>
      <trkpt lat="43.72787" lon="6.9398">
        <ele>1130.53</ele>
        <time>2015-09-20T07:55:52Z</time>
      </trkpt>
      <trkpt lat="43.72752" lon="6.93974">
        <ele>1132.17</ele>
        <time>2015-09-20T07:56:11Z</time>
      </trkpt>
      <trkpt lat="43.72723" lon="6.93964">
        <ele>1135.17</ele>
        <time>2015-09-20T07:56:27Z</time>
      </trkpt>
      <trkpt lat="43.72695" lon="6.93957">
        <ele>1138.15</ele>
        <time>2015-09-20T07:56:43Z</time>
      </trkpt>
      <trkpt lat="43.7267" lon="6.93952">
        <ele>1141.16</ele>
        <time>2015-09-20T07:56:58Z</time>
      </trkpt>
      <trkpt lat="43.72645" lon="6.93946">
        <ele>1144.21</ele>
        <time>2015-09-20T07:57:15Z</time>
      </trkpt>
      <trkpt lat="43.72624" lon="6.93941">
        <ele>1146.9</ele>
        <time>2015-09-20T07:57:30Z</time>
      </trkpt>
      <trkpt lat="43.72602" lon="6.93935">
        <ele>1150.03</ele>
        <time>2015-09-20T07:57:45Z</time>
      </trkpt>
      <trkpt lat="43.7258" lon="6.93932">
        <ele>1153.11</ele>
        <time>2015-09-20T07:58:02Z</time>
      </trkpt>
      <trkpt lat="43.72562" lon="6.93926">
        <ele>1155.47</ele>
        <time>2015-09-20T07:58:15Z</time>
      </trkpt>
      <trkpt lat="43.72547" lon="6.93925">
        <ele>1157.44</ele>
        <time>2015-09-20T07:58:26Z</time>
      </trkpt>
      <trkpt lat="43.72537" lon="6.93924">
        <ele>1158.96</ele>
        <time>2015-09-20T07:58:34Z</time>
      </trkpt>
      <trkpt lat="43.72519" lon="6.93917">
        <ele>1161.94</ele>
        <time>2015-09-20T07:58:49Z</time>
      </trkpt>
      <trkpt lat="43.725" lon="6.93909">
        <ele>1164.41</ele>
        <time>2015-09-20T07:59:03Z</time>
      </trkpt>
      <trkpt lat="43.72479" lon="6.93889">
        <ele>1166.35</ele>
        <time>2015-09-20T07:59:20Z</time>
      </trkpt>
      <trkpt lat="43.72448" lon="6.93863">
        <ele>1168.15</ele>
        <time>2015-09-20T07:59:38Z</time>
      </trkpt>
      <trkpt lat="43.72426" lon="6.93838">
        <ele>1169.71</ele>
        <time>2015-09-20T07:59:55Z</time>
      </trkpt>
      <trkpt lat="43.72409" lon="6.93822">
        <ele>1172.1</ele>
        <time>2015-09-20T08:00:10Z</time>
      </trkpt>
      <trkpt lat="43.72389" lon="6.93806">
        <ele>1174.73</ele>
        <time>2015-09-20T08:00:26Z</time>
      </trkpt>
      <trkpt lat="43.72372" lon="6.93797">
        <ele>1177</ele>
        <time>2015-09-20T08:00:40Z</time>
      </trkpt>
      <trkpt lat="43.72356" lon="6.93787">
        <ele>1179.79</ele>
        <time>2015-09-20T08:00:55Z</time>
      </trkpt>
      <trkpt lat="43.72339" lon="6.9378">
        <ele>1182.76</ele>
        <time>2015-09-20T08:01:09Z</time>
      </trkpt>
      <trkpt lat="43.72322" lon="6.93778">
        <ele>1185.88</ele>
        <time>2015-09-20T08:01:25Z</time>
      </trkpt>
      <trkpt lat="43.72302" lon="6.93783">
        <ele>1188.74</ele>
        <time>2015-09-20T08:01:41Z</time>
      </trkpt>
      <trkpt lat="43.72284" lon="6.93796">
        <ele>1191</ele>
        <time>2015-09-20T08:01:57Z</time>
      </trkpt>
      <trkpt lat="43.72266" lon="6.93821">
        <ele>1193.52</ele>
        <time>2015-09-20T08:02:14Z</time>
      </trkpt>
      <trkpt lat="43.72246" lon="6.93829">
        <ele>1195.51</ele>
        <time>2015-09-20T08:02:29Z</time>
      </trkpt>
      <trkpt lat="43.72225" lon="6.93841">
        <ele>1197.35</ele>
        <time>2015-09-20T08:02:43Z</time>
      </trkpt>
      <trkpt lat="43.72196" lon="6.9384">
        <ele>1200</ele>
        <time>2015-09-20T08:03:01Z</time>
      </trkpt>
      <trkpt lat="43.72171" lon="6.93832">
        <ele>1203.24</ele>
        <time>2015-09-20T08:03:18Z</time>
      </trkpt>
      <trkpt lat="43.72152" lon="6.93817">
        <ele>1206.4</ele>
        <time>2015-09-20T08:03:34Z</time>
      </trkpt>
      <trkpt lat="43.72132" lon="6.93794">
        <ele>1209.55</ele>
        <time>2015-09-20T08:03:54Z</time>
      </trkpt>
      <trkpt lat="43.72117" lon="6.93774">
        <ele>1212.42</ele>
        <time>2015-09-20T08:04:10Z</time>
      </trkpt>
      <trkpt lat="43.721" lon="6.93757">
        <ele>1215.55</ele>
        <time>2015-09-20T08:04:26Z</time>
      </trkpt>
      <trkpt lat="43.72085" lon="6.93742">
        <ele>1218.49</ele>
        <time>2015-09-20T08:04:41Z</time>
      </trkpt>
      <trkpt lat="43.72072" lon="6.93727">
        <ele>1221.53</ele>
        <time>2015-09-20T08:04:55Z</time>
      </trkpt>
      <trkpt lat="43.72058" lon="6.93713">
        <ele>1224.53</ele>
        <time>2015-09-20T08:05:10Z</time>
      </trkpt>
      <trkpt lat="43.72044" lon="6.937">
        <ele>1226.98</ele>
        <time>2015-09-20T08:05:24Z</time>
      </trkpt>
      <trkpt lat="43.7203" lon="6.93688">
        <ele>1230.08</ele>
        <time>2015-09-20T08:05:39Z</time>
      </trkpt>
      <trkpt lat="43.72024" lon="6.93682">
        <ele>1231.35</ele>
        <time>2015-09-20T08:05:45Z</time>
      </trkpt>
      <trkpt lat="43.72008" lon="6.93665">
        <ele>1234.66</ele>
        <time>2015-09-20T08:06:02Z</time>
      </trkpt>
      <trkpt lat="43.71991" lon="6.93649">
        <ele>1237.73</ele>
        <time>2015-09-20T08:06:17Z</time>
      </trkpt>
      <trkpt lat="43.71977" lon="6.93634">
        <ele>1240.24</ele>
        <time>2015-09-20T08:06:32Z</time>
      </trkpt>
      <trkpt lat="43.7196" lon="6.93618">
        <ele>1243.26</ele>
        <time>2015-09-20T08:06:48Z</time>
      </trkpt>
      <trkpt lat="43.71954" lon="6.93611">
        <ele>1244.65</ele>
        <time>2015-09-20T08:06:54Z</time>
      </trkpt>
      <trkpt lat="43.71938" lon="6.9359">
        <ele>1247.86</ele>
        <time>2015-09-20T08:07:11Z</time>
      </trkpt>
      <trkpt lat="43.71929" lon="6.93575">
        <ele>1250.89</ele>
        <time>2015-09-20T08:07:24Z</time>
      </trkpt>
      <trkpt lat="43.71919" lon="6.93562">
        <ele>1254.13</ele>
        <time>2015-09-20T08:07:36Z</time>
      </trkpt>
      <trkpt lat="43.71907" lon="6.93548">
        <ele>1257.15</ele>
        <time>2015-09-20T08:07:49Z</time>
      </trkpt>
      <trkpt lat="43.71888" lon="6.93521">
        <ele>1260.12</ele>
        <time>2015-09-20T08:08:07Z</time>
      </trkpt>
      <trkpt lat="43.7187" lon="6.93492">
        <ele>1260.75</ele>
        <time>2015-09-20T08:08:21Z</time>
      </trkpt>
      <trkpt lat="43.71848" lon="6.93458">
        <ele>1260.8</ele>
        <time>2015-09-20T08:08:36Z</time>
      </trkpt>
      <trkpt lat="43.71817" lon="6.93399">
        <ele>1259.19</ele>
        <time>2015-09-20T08:08:50Z</time>
      </trkpt>
      <trkpt lat="43.71789" lon="6.93355">
        <ele>1260.52</ele>
        <time>2015-09-20T08:09:01Z</time>
      </trkpt>
      <trkpt lat="43.71761" lon="6.93344">
        <ele>1263.66</ele>
        <time>2015-09-20T08:09:16Z</time>
      </trkpt>
      <trkpt lat="43.71738" lon="6.93353">
        <ele>1266.62</ele>
        <time>2015-09-20T08:09:33Z</time>
      </trkpt>
      <trkpt lat="43.71719" lon="6.9336">
        <ele>1269.66</ele>
        <time>2015-09-20T08:09:49Z</time>
      </trkpt>
      <trkpt lat="43.71711" lon="6.93364">
        <ele>1270.98</ele>
        <time>2015-09-20T08:09:55Z</time>
      </trkpt>
      <trkpt lat="43.71692" lon="6.93363">
        <ele>1274.25</ele>
        <time>2015-09-20T08:10:09Z</time>
      </trkpt>
      <trkpt lat="43.71688" lon="6.93361">
        <ele>1275.08</ele>
        <time>2015-09-20T08:10:13Z</time>
      </trkpt>
      <trkpt lat="43.71681" lon="6.9336">
        <ele>1276.21</ele>
        <time>2015-09-20T08:10:18Z</time>
      </trkpt>
      <trkpt lat="43.71664" lon="6.93352">
        <ele>1279.46</ele>
        <time>2015-09-20T08:10:33Z</time>
      </trkpt>
      <trkpt lat="43.71647" lon="6.93344">
        <ele>1282.24</ele>
        <time>2015-09-20T08:10:48Z</time>
      </trkpt>
      <trkpt lat="43.71636" lon="6.9333">
        <ele>1285.07</ele>
        <time>2015-09-20T08:11:02Z</time>
      </trkpt>
      <trkpt lat="43.71623" lon="6.93309">
        <ele>1288.2</ele>
        <time>2015-09-20T08:11:18Z</time>
      </trkpt>
      <trkpt lat="43.7161" lon="6.93285">
        <ele>1291.33</ele>
        <time>2015-09-20T08:11:35Z</time>
      </trkpt>
      <trkpt lat="43.71604" lon="6.93262">
        <ele>1293.83</ele>
        <time>2015-09-20T08:11:48Z</time>
      </trkpt>
      <trkpt lat="43.71604" lon="6.93244">
        <ele>1296.26</ele>
        <time>2015-09-20T08:11:59Z</time>
      </trkpt>
      <trkpt lat="43.71604" lon="6.93235">
        <ele>1297.37</ele>
        <time>2015-09-20T08:12:04Z</time>
      </trkpt>
      <trkpt lat="43.71605" lon="6.9321">
        <ele>1300.83</ele>
        <time>2015-09-20T08:12:19Z</time>
      </trkpt>
      <trkpt lat="43.71606" lon="6.93193">
        <ele>1302.98</ele>
        <time>2015-09-20T08:12:30Z</time>
      </trkpt>
      <trkpt lat="43.71604" lon="6.93182">
        <ele>1304.41</ele>
        <time>2015-09-20T08:12:37Z</time>
      </trkpt>
      <trkpt lat="43.71604" lon="6.93157">
        <ele>1307.61</ele>
        <time>2015-09-20T08:12:52Z</time>
      </trkpt>
      <trkpt lat="43.71602" lon="6.93133">
        <ele>1310.66</ele>
        <time>2015-09-20T08:13:06Z</time>
      </trkpt>
      <trkpt lat="43.71602" lon="6.93124">
        <ele>1311.91</ele>
        <time>2015-09-20T08:13:12Z</time>
      </trkpt>
      <trkpt lat="43.716" lon="6.93115">
        <ele>1313.39</ele>
        <time>2015-09-20T08:13:18Z</time>
      </trkpt>
      <trkpt lat="43.71595" lon="6.93095">
        <ele>1316.14</ele>
        <time>2015-09-20T08:13:32Z</time>
      </trkpt>
      <trkpt lat="43.71593" lon="6.93089">
        <ele>1316.92</ele>
        <time>2015-09-20T08:13:37Z</time>
      </trkpt>
      <trkpt lat="43.71587" lon="6.93067">
        <ele>1319.42</ele>
        <time>2015-09-20T08:13:51Z</time>
      </trkpt>
      <trkpt lat="43.71575" lon="6.93049">
        <ele>1321.27</ele>
        <time>2015-09-20T08:14:06Z</time>
      </trkpt>
      <trkpt lat="43.71566" lon="6.93053">
        <ele>1323.28</ele>
        <time>2015-09-20T08:14:18Z</time>
      </trkpt>
      <trkpt lat="43.7158" lon="6.9304">
        <ele>1325.83</ele>
        <time>2015-09-20T08:30:38Z</time>
      </trkpt>
      <trkpt lat="43.71588" lon="6.93027">
        <ele>1324.95</ele>
        <time>2015-09-20T08:30:49Z</time>
      </trkpt>
      <trkpt lat="43.71588" lon="6.93019">
        <ele>1324.64</ele>
        <time>2015-09-20T08:30:53Z</time>
      </trkpt>
      <trkpt lat="43.71587" lon="6.93014">
        <ele>1323.96</ele>
        <time>2015-09-20T08:31:04Z</time>
      </trkpt>
      <trkpt lat="43.7159" lon="6.93018">
        <ele>1323.99</ele>
        <time>2015-09-20T08:31:34Z</time>
      </trkpt>
      <trkpt lat="43.71591" lon="6.9302">
        <ele>1324.14</ele>
        <time>2015-09-20T08:31:35Z</time>
      </trkpt>
      <trkpt lat="43.71584" lon="6.93041">
        <ele>1325.81</ele>
        <time>2015-09-20T08:31:55Z</time>
      </trkpt>
      <trkpt lat="43.71572" lon="6.93054">
        <ele>1327.23</ele>
        <time>2015-09-20T08:32:14Z</time>
      </trkpt>
      <trkpt lat="43.71571" lon="6.93053">
        <ele>1329.62</ele>
        <time>2015-09-20T08:45:50Z</time>
      </trkpt>
      <trkpt lat="43.71573" lon="6.93051">
        <ele>1328.97</ele>
        <time>2015-09-20T08:45:55Z</time>
      </trkpt>
      <trkpt lat="43.71596" lon="6.93057">
        <ele>1328.35</ele>
        <time>2015-09-20T08:46:03Z</time>
      </trkpt>
      <trkpt lat="43.71598" lon="6.93055">
        <ele>1327.47</ele>
        <time>2015-09-20T08:46:10Z</time>
      </trkpt>
      <trkpt lat="43.7158" lon="6.9304">
        <ele>1327.13</ele>
        <time>2015-09-20T08:53:32Z</time>
      </trkpt>
      <trkpt lat="43.71557" lon="6.92996">
        <ele>1325.2</ele>
        <time>2015-09-20T08:53:39Z</time>
      </trkpt>
      <trkpt lat="43.7154" lon="6.93007">
        <ele>1324.38</ele>
        <time>2015-09-20T08:53:44Z</time>
      </trkpt>
      <trkpt lat="43.71536" lon="6.93015">
        <ele>1324.4</ele>
        <time>2015-09-20T08:53:45Z</time>
      </trkpt>
      <trkpt lat="43.71509" lon="6.93041">
        <ele>1321.09</ele>
        <time>2015-09-20T08:53:51Z</time>
      </trkpt>
      <trkpt lat="43.71491" lon="6.9306">
        <ele>1318.18</ele>
        <time>2015-09-20T08:53:55Z</time>
      </trkpt>
      <trkpt lat="43.71484" lon="6.93073">
        <ele>1316.12</ele>
        <time>2015-09-20T08:53:57Z</time>
      </trkpt>
      <trkpt lat="43.71464" lon="6.93089">
        <ele>1311.48</ele>
        <time>2015-09-20T08:54:01Z</time>
      </trkpt>
      <trkpt lat="43.71445" lon="6.93094">
        <ele>1306.4</ele>
        <time>2015-09-20T08:54:04Z</time>
      </trkpt>
      <trkpt lat="43.71439" lon="6.93094">
        <ele>1304.67</ele>
        <time>2015-09-20T08:54:05Z</time>
      </trkpt>
      <trkpt lat="43.71418" lon="6.93109">
        <ele>1299.49</ele>
        <time>2015-09-20T08:54:09Z</time>
      </trkpt>
      <trkpt lat="43.7141" lon="6.93119">
        <ele>1298.29</ele>
        <time>2015-09-20T08:54:11Z</time>
      </trkpt>
      <trkpt lat="43.71416" lon="6.93152">
        <ele>1296.09</ele>
        <time>2015-09-20T08:54:17Z</time>
      </trkpt>
      <trkpt lat="43.71432" lon="6.93184">
        <ele>1295.7</ele>
        <time>2015-09-20T08:54:22Z</time>
      </trkpt>
      <trkpt lat="43.71446" lon="6.93204">
        <ele>1294.14</ele>
        <time>2015-09-20T08:54:26Z</time>
      </trkpt>
      <trkpt lat="43.71466" lon="6.9324">
        <ele>1291.26</ele>
        <time>2015-09-20T08:54:32Z</time>
      </trkpt>
      <trkpt lat="43.71482" lon="6.9326">
        <ele>1289.3</ele>
        <time>2015-09-20T08:54:36Z</time>
      </trkpt>
      <trkpt lat="43.71503" lon="6.93268">
        <ele>1291.16</ele>
        <time>2015-09-20T08:54:42Z</time>
      </trkpt>
      <trkpt lat="43.7152" lon="6.93278">
        <ele>1290.36</ele>
        <time>2015-09-20T08:54:46Z</time>
      </trkpt>
      <trkpt lat="43.71536" lon="6.93304">
        <ele>1287.88</ele>
        <time>2015-09-20T08:54:51Z</time>
      </trkpt>
      <trkpt lat="43.71539" lon="6.93313">
        <ele>1285.63</ele>
        <time>2015-09-20T08:54:53Z</time>
      </trkpt>
      <trkpt lat="43.71554" lon="6.93319">
        <ele>1284.99</ele>
        <time>2015-09-20T08:54:58Z</time>
      </trkpt>
      <trkpt lat="43.71573" lon="6.93336">
        <ele>1284.48</ele>
        <time>2015-09-20T08:55:03Z</time>
      </trkpt>
      <trkpt lat="43.71588" lon="6.93356">
        <ele>1284.63</ele>
        <time>2015-09-20T08:55:07Z</time>
      </trkpt>
      <trkpt lat="43.71594" lon="6.93366">
        <ele>1284.99</ele>
        <time>2015-09-20T08:55:09Z</time>
      </trkpt>
      <trkpt lat="43.71609" lon="6.93377">
        <ele>1284.26</ele>
        <time>2015-09-20T08:55:13Z</time>
      </trkpt>
      <trkpt lat="43.71617" lon="6.9338">
        <ele>1285.5</ele>
        <time>2015-09-20T08:55:16Z</time>
      </trkpt>
      <trkpt lat="43.71645" lon="6.93396">
        <ele>1283.92</ele>
        <time>2015-09-20T08:55:24Z</time>
      </trkpt>
      <trkpt lat="43.71661" lon="6.93416">
        <ele>1279.16</ele>
        <time>2015-09-20T08:55:29Z</time>
      </trkpt>
      <trkpt lat="43.71674" lon="6.93426">
        <ele>1275.95</ele>
        <time>2015-09-20T08:55:34Z</time>
      </trkpt>
      <trkpt lat="43.71682" lon="6.93424">
        <ele>1275.08</ele>
        <time>2015-09-20T08:55:36Z</time>
      </trkpt>
      <trkpt lat="43.71692" lon="6.9342">
        <ele>1273.71</ele>
        <time>2015-09-20T08:55:38Z</time>
      </trkpt>
      <trkpt lat="43.71715" lon="6.9341">
        <ele>1271.8</ele>
        <time>2015-09-20T08:55:42Z</time>
      </trkpt>
      <trkpt lat="43.71739" lon="6.93391">
        <ele>1270.64</ele>
        <time>2015-09-20T08:55:48Z</time>
      </trkpt>
      <trkpt lat="43.71748" lon="6.93389">
        <ele>1269.41</ele>
        <time>2015-09-20T08:55:50Z</time>
      </trkpt>
      <trkpt lat="43.7177" lon="6.934">
        <ele>1265.48</ele>
        <time>2015-09-20T08:55:55Z</time>
      </trkpt>
      <trkpt lat="43.71773" lon="6.93402">
        <ele>1265.31</ele>
        <time>2015-09-20T08:55:56Z</time>
      </trkpt>
      <trkpt lat="43.71777" lon="6.93412">
        <ele>1264.08</ele>
        <time>2015-09-20T08:55:58Z</time>
      </trkpt>
      <trkpt lat="43.71775" lon="6.93434">
        <ele>1259.52</ele>
        <time>2015-09-20T08:56:01Z</time>
      </trkpt>
      <trkpt lat="43.71762" lon="6.93505">
        <ele>1258.96</ele>
        <time>2015-09-20T08:56:10Z</time>
      </trkpt>
      <trkpt lat="43.71755" lon="6.93508">
        <ele>1259.14</ele>
        <time>2015-09-20T08:56:11Z</time>
      </trkpt>
      <trkpt lat="43.71733" lon="6.93542">
        <ele>1257.67</ele>
        <time>2015-09-20T08:56:18Z</time>
      </trkpt>
      <trkpt lat="43.71726" lon="6.93573">
        <ele>1255.72</ele>
        <time>2015-09-20T08:56:23Z</time>
      </trkpt>
      <trkpt lat="43.71724" lon="6.93585">
        <ele>1254.93</ele>
        <time>2015-09-20T08:56:25Z</time>
      </trkpt>
      <trkpt lat="43.71721" lon="6.93597">
        <ele>1254.36</ele>
        <time>2015-09-20T08:56:27Z</time>
      </trkpt>
      <trkpt lat="43.7174" lon="6.93615">
        <ele>1252.32</ele>
        <time>2015-09-20T08:56:33Z</time>
      </trkpt>
      <trkpt lat="43.71759" lon="6.93615">
        <ele>1250.06</ele>
        <time>2015-09-20T08:56:37Z</time>
      </trkpt>
      <trkpt lat="43.71771" lon="6.93611">
        <ele>1248.54</ele>
        <time>2015-09-20T08:56:39Z</time>
      </trkpt>
      <trkpt lat="43.71801" lon="6.93625">
        <ele>1246.48</ele>
        <time>2015-09-20T08:56:45Z</time>
      </trkpt>
      <trkpt lat="43.71838" lon="6.93658">
        <ele>1242.77</ele>
        <time>2015-09-20T08:56:53Z</time>
      </trkpt>
      <trkpt lat="43.71839" lon="6.93669">
        <ele>1242.75</ele>
        <time>2015-09-20T08:56:55Z</time>
      </trkpt>
      <trkpt lat="43.71851" lon="6.93684">
        <ele>1241.27</ele>
        <time>2015-09-20T08:57:00Z</time>
      </trkpt>
      <trkpt lat="43.71871" lon="6.93708">
        <ele>1242.84</ele>
        <time>2015-09-20T08:57:08Z</time>
      </trkpt>
      <trkpt lat="43.71897" lon="6.93724">
        <ele>1240.64</ele>
        <time>2015-09-20T08:57:13Z</time>
      </trkpt>
      <trkpt lat="43.71913" lon="6.93721">
        <ele>1240.86</ele>
        <time>2015-09-20T08:57:16Z</time>
      </trkpt>
      <trkpt lat="43.71933" lon="6.93721">
        <ele>1240.72</ele>
        <time>2015-09-20T08:57:20Z</time>
      </trkpt>
      <trkpt lat="43.71946" lon="6.93727">
        <ele>1239.2</ele>
        <time>2015-09-20T08:57:22Z</time>
      </trkpt>
      <trkpt lat="43.71975" lon="6.93752">
        <ele>1234.15</ele>
        <time>2015-09-20T08:57:26Z</time>
      </trkpt>
      <trkpt lat="43.71993" lon="6.9377">
        <ele>1231.04</ele>
        <time>2015-09-20T08:57:29Z</time>
      </trkpt>
      <trkpt lat="43.71999" lon="6.93796">
        <ele>1228.9</ele>
        <time>2015-09-20T08:57:33Z</time>
      </trkpt>
      <trkpt lat="43.72008" lon="6.93813">
        <ele>1226.39</ele>
        <time>2015-09-20T08:57:37Z</time>
      </trkpt>
      <trkpt lat="43.72028" lon="6.9381">
        <ele>1225.31</ele>
        <time>2015-09-20T08:57:41Z</time>
      </trkpt>
      <trkpt lat="43.72048" lon="6.93805">
        <ele>1223.09</ele>
        <time>2015-09-20T08:57:44Z</time>
      </trkpt>
      <trkpt lat="43.72066" lon="6.93823">
        <ele>1219.2</ele>
        <time>2015-09-20T08:57:48Z</time>
      </trkpt>
      <trkpt lat="43.72066" lon="6.93831">
        <ele>1218.89</ele>
        <time>2015-09-20T08:57:49Z</time>
      </trkpt>
      <trkpt lat="43.72065" lon="6.93848">
        <ele>1217.25</ele>
        <time>2015-09-20T08:57:51Z</time>
      </trkpt>
      <trkpt lat="43.72063" lon="6.93867">
        <ele>1212.89</ele>
        <time>2015-09-20T08:57:53Z</time>
      </trkpt>
      <trkpt lat="43.7208" lon="6.93905">
        <ele>1208.61</ele>
        <time>2015-09-20T08:57:58Z</time>
      </trkpt>
      <trkpt lat="43.72084" lon="6.9391">
        <ele>1208.58</ele>
        <time>2015-09-20T08:57:59Z</time>
      </trkpt>
      <trkpt lat="43.72095" lon="6.9392">
        <ele>1205.11</ele>
        <time>2015-09-20T08:58:02Z</time>
      </trkpt>
      <trkpt lat="43.72122" lon="6.93943">
        <ele>1201.6</ele>
        <time>2015-09-20T08:58:07Z</time>
      </trkpt>
      <trkpt lat="43.72139" lon="6.93964">
        <ele>1199.33</ele>
        <time>2015-09-20T08:58:10Z</time>
      </trkpt>
      <trkpt lat="43.72151" lon="6.93988">
        <ele>1196.84</ele>
        <time>2015-09-20T08:58:13Z</time>
      </trkpt>
      <trkpt lat="43.72178" lon="6.94017">
        <ele>1192.81</ele>
        <time>2015-09-20T08:58:21Z</time>
      </trkpt>
      <trkpt lat="43.72179" lon="6.94024">
        <ele>1191.46</ele>
        <time>2015-09-20T08:58:22Z</time>
      </trkpt>
      <trkpt lat="43.72182" lon="6.94038">
        <ele>1189.89</ele>
        <time>2015-09-20T08:58:24Z</time>
      </trkpt>
      <trkpt lat="43.72185" lon="6.94067">
        <ele>1185.01</ele>
        <time>2015-09-20T08:58:27Z</time>
      </trkpt>
      <trkpt lat="43.72194" lon="6.94094">
        <ele>1187.36</ele>
        <time>2015-09-20T08:58:32Z</time>
      </trkpt>
      <trkpt lat="43.72206" lon="6.94106">
        <ele>1183.67</ele>
        <time>2015-09-20T08:58:37Z</time>
      </trkpt>
      <trkpt lat="43.72208" lon="6.94109">
        <ele>1183.1</ele>
        <time>2015-09-20T08:58:38Z</time>
      </trkpt>
      <trkpt lat="43.72214" lon="6.94116">
        <ele>1182.53</ele>
        <time>2015-09-20T08:58:40Z</time>
      </trkpt>
      <trkpt lat="43.72216" lon="6.94134">
        <ele>1179.84</ele>
        <time>2015-09-20T08:58:43Z</time>
      </trkpt>
      <trkpt lat="43.72219" lon="6.94146">
        <ele>1179.44</ele>
        <time>2015-09-20T08:58:45Z</time>
      </trkpt>
      <trkpt lat="43.72222" lon="6.94161">
        <ele>1179.12</ele>
        <time>2015-09-20T08:58:47Z</time>
      </trkpt>
      <trkpt lat="43.72232" lon="6.94187">
        <ele>1176.87</ele>
        <time>2015-09-20T08:58:50Z</time>
      </trkpt>
      <trkpt lat="43.7224" lon="6.94209">
        <ele>1174.96</ele>
        <time>2015-09-20T08:58:53Z</time>
      </trkpt>
      <trkpt lat="43.72244" lon="6.94223">
        <ele>1173.7</ele>
        <time>2015-09-20T08:58:55Z</time>
      </trkpt>
      <trkpt lat="43.72247" lon="6.94249">
        <ele>1171.86</ele>
        <time>2015-09-20T08:58:58Z</time>
      </trkpt>
      <trkpt lat="43.72269" lon="6.94288">
        <ele>1169.71</ele>
        <time>2015-09-20T08:59:04Z</time>
      </trkpt>
      <trkpt lat="43.72293" lon="6.94311">
        <ele>1173.02</ele>
        <time>2015-09-20T08:59:12Z</time>
      </trkpt>
      <trkpt lat="43.7231" lon="6.94338">
        <ele>1171.76</ele>
        <time>2015-09-20T08:59:18Z</time>
      </trkpt>
      <trkpt lat="43.72341" lon="6.94366">
        <ele>1174.72</ele>
        <time>2015-09-20T08:59:29Z</time>
      </trkpt>
      <trkpt lat="43.72351" lon="6.94373">
        <ele>1174.79</ele>
        <time>2015-09-20T08:59:32Z</time>
      </trkpt>
      <trkpt lat="43.72361" lon="6.94385">
        <ele>1174.5</ele>
        <time>2015-09-20T08:59:35Z</time>
      </trkpt>
      <trkpt lat="43.72396" lon="6.94398">
        <ele>1173.76</ele>
        <time>2015-09-20T08:59:44Z</time>
      </trkpt>
      <trkpt lat="43.72414" lon="6.9439">
        <ele>1173.94</ele>
        <time>2015-09-20T08:59:49Z</time>
      </trkpt>
      <trkpt lat="43.72427" lon="6.94387">
        <ele>1173.7</ele>
        <time>2015-09-20T08:59:52Z</time>
      </trkpt>
      <trkpt lat="43.72446" lon="6.94396">
        <ele>1169.8</ele>
        <time>2015-09-20T08:59:56Z</time>
      </trkpt>
      <trkpt lat="43.72465" lon="6.94392">
        <ele>1165.96</ele>
        <time>2015-09-20T09:00:01Z</time>
      </trkpt>
      <trkpt lat="43.72471" lon="6.94385">
        <ele>1165.06</ele>
        <time>2015-09-20T09:00:03Z</time>
      </trkpt>
      <trkpt lat="43.72488" lon="6.94368">
        <ele>1164.27</ele>
        <time>2015-09-20T09:00:07Z</time>
      </trkpt>
      <trkpt lat="43.72504" lon="6.94362">
        <ele>1162.46</ele>
        <time>2015-09-20T09:00:10Z</time>
      </trkpt>
      <trkpt lat="43.72524" lon="6.94342">
        <ele>1162.55</ele>
        <time>2015-09-20T09:00:16Z</time>
      </trkpt>
      <trkpt lat="43.72529" lon="6.94332">
        <ele>1162.97</ele>
        <time>2015-09-20T09:00:18Z</time>
      </trkpt>
      <trkpt lat="43.72539" lon="6.9432">
        <ele>1160.75</ele>
        <time>2015-09-20T09:00:21Z</time>
      </trkpt>
      <trkpt lat="43.72562" lon="6.94311">
        <ele>1156.01</ele>
        <time>2015-09-20T09:00:26Z</time>
      </trkpt>
      <trkpt lat="43.72582" lon="6.9431">
        <ele>1151.96</ele>
        <time>2015-09-20T09:00:31Z</time>
      </trkpt>
      <trkpt lat="43.72582" lon="6.94322">
        <ele>1150.52</ele>
        <time>2015-09-20T09:00:34Z</time>
      </trkpt>
      <trkpt lat="43.72584" lon="6.94332">
        <ele>1149.81</ele>
        <time>2015-09-20T09:00:36Z</time>
      </trkpt>
      <trkpt lat="43.72588" lon="6.94344">
        <ele>1149.52</ele>
        <time>2015-09-20T09:00:38Z</time>
      </trkpt>
      <trkpt lat="43.72578" lon="6.94381">
        <ele>1148.41</ele>
        <time>2015-09-20T09:00:43Z</time>
      </trkpt>
      <trkpt lat="43.72582" lon="6.94399">
        <ele>1144.55</ele>
        <time>2015-09-20T09:00:49Z</time>
      </trkpt>
      <trkpt lat="43.72601" lon="6.94379">
        <ele>1140.76</ele>
        <time>2015-09-20T09:00:54Z</time>
      </trkpt>
      <trkpt lat="43.72616" lon="6.9437">
        <ele>1137.86</ele>
        <time>2015-09-20T09:00:58Z</time>
      </trkpt>
      <trkpt lat="43.72628" lon="6.94368">
        <ele>1134.14</ele>
        <time>2015-09-20T09:01:05Z</time>
      </trkpt>
      <trkpt lat="43.72631" lon="6.94364">
        <ele>1133.65</ele>
        <time>2015-09-20T09:01:06Z</time>
      </trkpt>
      <trkpt lat="43.72635" lon="6.94359">
        <ele>1132.62</ele>
        <time>2015-09-20T09:01:08Z</time>
      </trkpt>
      <trkpt lat="43.72646" lon="6.94366">
        <ele>1128.76</ele>
        <time>2015-09-20T09:01:12Z</time>
      </trkpt>
      <trkpt lat="43.72651" lon="6.94377">
        <ele>1125.43</ele>
        <time>2015-09-20T09:01:15Z</time>
      </trkpt>
      <trkpt lat="43.72655" lon="6.94407">
        <ele>1122.35</ele>
        <time>2015-09-20T09:01:22Z</time>
      </trkpt>
      <trkpt lat="43.72678" lon="6.9442">
        <ele>1119.1</ele>
        <time>2015-09-20T09:01:26Z</time>
      </trkpt>
      <trkpt lat="43.72689" lon="6.94433">
        <ele>1117.74</ele>
        <time>2015-09-20T09:01:28Z</time>
      </trkpt>
      <trkpt lat="43.72695" lon="6.94447">
        <ele>1116.92</ele>
        <time>2015-09-20T09:01:30Z</time>
      </trkpt>
      <trkpt lat="43.7269" lon="6.94466">
        <ele>1118.54</ele>
        <time>2015-09-20T09:01:33Z</time>
      </trkpt>
      <trkpt lat="43.72681" lon="6.94487">
        <ele>1119.43</ele>
        <time>2015-09-20T09:01:37Z</time>
      </trkpt>
      <trkpt lat="43.72691" lon="6.94533">
        <ele>1116.28</ele>
        <time>2015-09-20T09:01:44Z</time>
      </trkpt>
      <trkpt lat="43.72699" lon="6.94555">
        <ele>1111.42</ele>
        <time>2015-09-20T09:01:47Z</time>
      </trkpt>
      <trkpt lat="43.72702" lon="6.94569">
        <ele>1109.4</ele>
        <time>2015-09-20T09:01:49Z</time>
      </trkpt>
      <trkpt lat="43.72711" lon="6.94587">
        <ele>1108.09</ele>
        <time>2015-09-20T09:01:52Z</time>
      </trkpt>
      <trkpt lat="43.7271" lon="6.94619">
        <ele>1103.64</ele>
        <time>2015-09-20T09:01:56Z</time>
      </trkpt>
      <trkpt lat="43.72711" lon="6.94672">
        <ele>1102.26</ele>
        <time>2015-09-20T09:02:02Z</time>
      </trkpt>
      <trkpt lat="43.72708" lon="6.94725">
        <ele>1100.38</ele>
        <time>2015-09-20T09:02:08Z</time>
      </trkpt>
      <trkpt lat="43.72702" lon="6.94742">
        <ele>1099.34</ele>
        <time>2015-09-20T09:02:10Z</time>
      </trkpt>
      <trkpt lat="43.7267" lon="6.94754">
        <ele>1098.11</ele>
        <time>2015-09-20T09:02:16Z</time>
      </trkpt>
      <trkpt lat="43.72653" lon="6.94751">
        <ele>1097.61</ele>
        <time>2015-09-20T09:02:19Z</time>
      </trkpt>
      <trkpt lat="43.72628" lon="6.94751">
        <ele>1096.47</ele>
        <time>2015-09-20T09:02:23Z</time>
      </trkpt>
      <trkpt lat="43.72607" lon="6.94742">
        <ele>1098.46</ele>
        <time>2015-09-20T09:02:28Z</time>
      </trkpt>
      <trkpt lat="43.72603" lon="6.94746">
        <ele>1098.66</ele>
        <time>2015-09-20T09:02:30Z</time>
      </trkpt>
      <trkpt lat="43.72592" lon="6.94761">
        <ele>1098.35</ele>
        <time>2015-09-20T09:02:34Z</time>
      </trkpt>
      <trkpt lat="43.72583" lon="6.94792">
        <ele>1096.66</ele>
        <time>2015-09-20T09:02:39Z</time>
      </trkpt>
      <trkpt lat="43.72579" lon="6.94834">
        <ele>1094.31</ele>
        <time>2015-09-20T09:02:44Z</time>
      </trkpt>
      <trkpt lat="43.72559" lon="6.94856">
        <ele>1096.41</ele>
        <time>2015-09-20T09:02:51Z</time>
      </trkpt>
      <trkpt lat="43.72552" lon="6.94841">
        <ele>1092.99</ele>
        <time>2015-09-20T09:02:57Z</time>
      </trkpt>
      <trkpt lat="43.72554" lon="6.94822">
        <ele>1089.89</ele>
        <time>2015-09-20T09:03:01Z</time>
      </trkpt>
      <trkpt lat="43.72549" lon="6.94806">
        <ele>1086.46</ele>
        <time>2015-09-20T09:03:04Z</time>
      </trkpt>
      <trkpt lat="43.7254" lon="6.94798">
        <ele>1083.16</ele>
        <time>2015-09-20T09:03:06Z</time>
      </trkpt>
      <trkpt lat="43.72523" lon="6.94782">
        <ele>1080.34</ele>
        <time>2015-09-20T09:03:13Z</time>
      </trkpt>
      <trkpt lat="43.72521" lon="6.94797">
        <ele>1079.37</ele>
        <time>2015-09-20T09:03:19Z</time>
      </trkpt>
      <trkpt lat="43.72518" lon="6.9483">
        <ele>1076.06</ele>
        <time>2015-09-20T09:03:24Z</time>
      </trkpt>
      <trkpt lat="43.72511" lon="6.94842">
        <ele>1072.24</ele>
        <time>2015-09-20T09:03:28Z</time>
      </trkpt>
      <trkpt lat="43.72508" lon="6.94835">
        <ele>1071.1</ele>
        <time>2015-09-20T09:03:30Z</time>
      </trkpt>
      <trkpt lat="43.72503" lon="6.94823">
        <ele>1069.02</ele>
        <time>2015-09-20T09:03:32Z</time>
      </trkpt>
      <trkpt lat="43.72488" lon="6.94799">
        <ele>1063.98</ele>
        <time>2015-09-20T09:03:36Z</time>
      </trkpt>
      <trkpt lat="43.72475" lon="6.94786">
        <ele>1061.51</ele>
        <time>2015-09-20T09:03:39Z</time>
      </trkpt>
      <trkpt lat="43.72466" lon="6.94781">
        <ele>1059.71</ele>
        <time>2015-09-20T09:03:41Z</time>
      </trkpt>
      <trkpt lat="43.7244" lon="6.94774">
        <ele>1055.85</ele>
        <time>2015-09-20T09:03:47Z</time>
      </trkpt>
      <trkpt lat="43.72435" lon="6.94773">
        <ele>1054.53</ele>
        <time>2015-09-20T09:03:48Z</time>
      </trkpt>
      <trkpt lat="43.72419" lon="6.9477">
        <ele>1051.18</ele>
        <time>2015-09-20T09:03:51Z</time>
      </trkpt>
      <trkpt lat="43.72403" lon="6.94764">
        <ele>1050.93</ele>
        <time>2015-09-20T09:03:54Z</time>
      </trkpt>
      <trkpt lat="43.72375" lon="6.94766">
        <ele>1050.16</ele>
        <time>2015-09-20T09:04:00Z</time>
      </trkpt>
      <trkpt lat="43.72358" lon="6.94762">
        <ele>1048.63</ele>
        <time>2015-09-20T09:04:04Z</time>
      </trkpt>
      <trkpt lat="43.72346" lon="6.94762">
        <ele>1047.66</ele>
        <time>2015-09-20T09:04:06Z</time>
      </trkpt>
      <trkpt lat="43.72321" lon="6.94766">
        <ele>1042.95</ele>
        <time>2015-09-20T09:04:09Z</time>
      </trkpt>
      <trkpt lat="43.72294" lon="6.94757">
        <ele>1037.55</ele>
        <time>2015-09-20T09:04:12Z</time>
      </trkpt>
      <trkpt lat="43.72276" lon="6.9474">
        <ele>1033.48</ele>
        <time>2015-09-20T09:04:14Z</time>
      </trkpt>
      <trkpt lat="43.7226" lon="6.94722">
        <ele>1032.61</ele>
        <time>2015-09-20T09:04:16Z</time>
      </trkpt>
      <trkpt lat="43.7217" lon="6.94631">
        <ele>1031.48</ele>
        <time>2015-09-20T09:04:28Z</time>
      </trkpt>
      <trkpt lat="43.7216" lon="6.94616">
        <ele>1032.11</ele>
        <time>2015-09-20T09:04:30Z</time>
      </trkpt>
      <trkpt lat="43.72138" lon="6.94602">
        <ele>1031.75</ele>
        <time>2015-09-20T09:04:36Z</time>
      </trkpt>
      <trkpt lat="43.72096" lon="6.94587">
        <ele>1029.16</ele>
        <time>2015-09-20T09:04:45Z</time>
      </trkpt>
      <trkpt lat="43.72064" lon="6.94576">
        <ele>1029.88</ele>
        <time>2015-09-20T09:04:52Z</time>
      </trkpt>
      <trkpt lat="43.72047" lon="6.94572">
        <ele>1030.04</ele>
        <time>2015-09-20T09:04:56Z</time>
      </trkpt>
      <trkpt lat="43.72023" lon="6.94571">
        <ele>1030.76</ele>
        <time>2015-09-20T09:05:04Z</time>
      </trkpt>
      <trkpt lat="43.72004" lon="6.94576">
        <ele>1027.35</ele>
        <time>2015-09-20T09:05:10Z</time>
      </trkpt>
      <trkpt lat="43.71999" lon="6.94582">
        <ele>1026.66</ele>
        <time>2015-09-20T09:05:12Z</time>
      </trkpt>
      <trkpt lat="43.71986" lon="6.94594">
        <ele>1024.09</ele>
        <time>2015-09-20T09:05:16Z</time>
      </trkpt>
      <trkpt lat="43.71975" lon="6.94585">
        <ele>1022.06</ele>
        <time>2015-09-20T09:05:20Z</time>
      </trkpt>
      <trkpt lat="43.71963" lon="6.94573">
        <ele>1020.22</ele>
        <time>2015-09-20T09:05:24Z</time>
      </trkpt>
      <trkpt lat="43.71938" lon="6.94558">
        <ele>1016.91</ele>
        <time>2015-09-20T09:05:29Z</time>
      </trkpt>
      <trkpt lat="43.71907" lon="6.94561">
        <ele>1013.7</ele>
        <time>2015-09-20T09:05:36Z</time>
      </trkpt>
      <trkpt lat="43.71889" lon="6.94586">
        <ele>1011.32</ele>
        <time>2015-09-20T09:05:40Z</time>
      </trkpt>
      <trkpt lat="43.71856" lon="6.94611">
        <ele>1007.21</ele>
        <time>2015-09-20T09:05:46Z</time>
      </trkpt>
      <trkpt lat="43.71837" lon="6.94628">
        <ele>1005.96</ele>
        <time>2015-09-20T09:05:50Z</time>
      </trkpt>
      <trkpt lat="43.71835" lon="6.94652">
        <ele>1001.81</ele>
        <time>2015-09-20T09:05:55Z</time>
      </trkpt>
      <trkpt lat="43.7182" lon="6.94661">
        <ele>998.65</ele>
        <time>2015-09-20T09:05:58Z</time>
      </trkpt>
      <trkpt lat="43.71778" lon="6.94682">
        <ele>993</ele>
        <time>2015-09-20T09:06:04Z</time>
      </trkpt>
      <trkpt lat="43.71756" lon="6.94696">
        <ele>990.19</ele>
        <time>2015-09-20T09:06:07Z</time>
      </trkpt>
      <trkpt lat="43.71724" lon="6.94743">
        <ele>986.88</ele>
        <time>2015-09-20T09:06:14Z</time>
      </trkpt>
      <trkpt lat="43.71725" lon="6.94758">
        <ele>986.73</ele>
        <time>2015-09-20T09:06:16Z</time>
      </trkpt>
      <trkpt lat="43.7172" lon="6.94824">
        <ele>985.47</ele>
        <time>2015-09-20T09:06:26Z</time>
      </trkpt>
      <trkpt lat="43.71716" lon="6.94851">
        <ele>983.69</ele>
        <time>2015-09-20T09:06:30Z</time>
      </trkpt>
      <trkpt lat="43.71719" lon="6.94857">
        <ele>984.32</ele>
        <time>2015-09-20T09:06:31Z</time>
      </trkpt>
      <trkpt lat="43.71729" lon="6.94878">
        <ele>982.15</ele>
        <time>2015-09-20T09:06:35Z</time>
      </trkpt>
      <trkpt lat="43.71733" lon="6.94884">
        <ele>981.78</ele>
        <time>2015-09-20T09:06:36Z</time>
      </trkpt>
      <trkpt lat="43.71739" lon="6.94896">
        <ele>979.68</ele>
        <time>2015-09-20T09:06:38Z</time>
      </trkpt>
      <trkpt lat="43.71754" lon="6.94922">
        <ele>976.09</ele>
        <time>2015-09-20T09:06:42Z</time>
      </trkpt>
      <trkpt lat="43.7177" lon="6.9495">
        <ele>971.92</ele>
        <time>2015-09-20T09:06:46Z</time>
      </trkpt>
      <trkpt lat="43.71774" lon="6.94958">
        <ele>969.87</ele>
        <time>2015-09-20T09:06:47Z</time>
      </trkpt>
      <trkpt lat="43.71789" lon="6.94969">
        <ele>967.79</ele>
        <time>2015-09-20T09:06:50Z</time>
      </trkpt>
      <trkpt lat="43.71802" lon="6.94976">
        <ele>968.92</ele>
        <time>2015-09-20T09:06:53Z</time>
      </trkpt>
      <trkpt lat="43.71812" lon="6.94983">
        <ele>966.9</ele>
        <time>2015-09-20T09:06:56Z</time>
      </trkpt>
      <trkpt lat="43.71826" lon="6.95001">
        <ele>965.74</ele>
        <time>2015-09-20T09:07:02Z</time>
      </trkpt>
      <trkpt lat="43.71838" lon="6.95024">
        <ele>962.15</ele>
        <time>2015-09-20T09:07:05Z</time>
      </trkpt>
      <trkpt lat="43.71855" lon="6.95046">
        <ele>956.28</ele>
        <time>2015-09-20T09:07:08Z</time>
      </trkpt>
      <trkpt lat="43.71867" lon="6.95059">
        <ele>954.18</ele>
        <time>2015-09-20T09:07:10Z</time>
      </trkpt>
      <trkpt lat="43.71874" lon="6.95076">
        <ele>955.9</ele>
        <time>2015-09-20T09:07:13Z</time>
      </trkpt>
      <trkpt lat="43.71877" lon="6.95091">
        <ele>952.67</ele>
        <time>2015-09-20T09:07:17Z</time>
      </trkpt>
      <trkpt lat="43.71878" lon="6.95099">
        <ele>949.55</ele>
        <time>2015-09-20T09:07:19Z</time>
      </trkpt>
      <trkpt lat="43.71883" lon="6.95126">
        <ele>945.86</ele>
        <time>2015-09-20T09:07:24Z</time>
      </trkpt>
      <trkpt lat="43.71888" lon="6.95143">
        <ele>942.47</ele>
        <time>2015-09-20T09:07:26Z</time>
      </trkpt>
      <trkpt lat="43.71892" lon="6.95152">
        <ele>940.9</ele>
        <time>2015-09-20T09:07:27Z</time>
      </trkpt>
      <trkpt lat="43.71911" lon="6.95181">
        <ele>937.58</ele>
        <time>2015-09-20T09:07:31Z</time>
      </trkpt>
      <trkpt lat="43.71945" lon="6.95204">
        <ele>933.19</ele>
        <time>2015-09-20T09:07:36Z</time>
      </trkpt>
      <trkpt lat="43.71961" lon="6.95214">
        <ele>928.78</ele>
        <time>2015-09-20T09:07:38Z</time>
      </trkpt>
      <trkpt lat="43.71977" lon="6.95223">
        <ele>926.72</ele>
        <time>2015-09-20T09:07:40Z</time>
      </trkpt>
      <trkpt lat="43.71997" lon="6.95242">
        <ele>926.9</ele>
        <time>2015-09-20T09:07:43Z</time>
      </trkpt>
      <trkpt lat="43.72007" lon="6.95245">
        <ele>929.07</ele>
        <time>2015-09-20T09:07:47Z</time>
      </trkpt>
      <trkpt lat="43.72012" lon="6.95248">
        <ele>928.35</ele>
        <time>2015-09-20T09:07:49Z</time>
      </trkpt>
      <trkpt lat="43.72045" lon="6.95246">
        <ele>926.07</ele>
        <time>2015-09-20T09:07:56Z</time>
      </trkpt>
      <trkpt lat="43.7205" lon="6.95249">
        <ele>925.49</ele>
        <time>2015-09-20T09:07:57Z</time>
      </trkpt>
      <trkpt lat="43.72079" lon="6.95266">
        <ele>920.8</ele>
        <time>2015-09-20T09:08:03Z</time>
      </trkpt>
      <trkpt lat="43.72093" lon="6.95254">
        <ele>918.64</ele>
        <time>2015-09-20T09:08:08Z</time>
      </trkpt>
      <trkpt lat="43.72104" lon="6.95251">
        <ele>916.68</ele>
        <time>2015-09-20T09:08:11Z</time>
      </trkpt>
      <trkpt lat="43.72106" lon="6.9525">
        <ele>916.46</ele>
        <time>2015-09-20T09:08:12Z</time>
      </trkpt>
      <trkpt lat="43.72108" lon="6.95249">
        <ele>916.33</ele>
        <time>2015-09-20T09:08:14Z</time>
      </trkpt>
      <trkpt lat="43.72133" lon="6.95268">
        <ele>914.63</ele>
        <time>2015-09-20T09:08:22Z</time>
      </trkpt>
      <trkpt lat="43.7215" lon="6.95283">
        <ele>914.1</ele>
        <time>2015-09-20T09:08:26Z</time>
      </trkpt>
      <trkpt lat="43.72173" lon="6.95314">
        <ele>911.31</ele>
        <time>2015-09-20T09:08:33Z</time>
      </trkpt>
      <trkpt lat="43.72179" lon="6.95326">
        <ele>909.57</ele>
        <time>2015-09-20T09:08:36Z</time>
      </trkpt>
      <trkpt lat="43.7218" lon="6.95326">
        <ele>908.69</ele>
        <time>2015-09-20T09:08:42Z</time>
      </trkpt>
      <trkpt lat="43.7219" lon="6.95347">
        <ele>905.5</ele>
        <time>2015-09-20T09:08:47Z</time>
      </trkpt>
      <trkpt lat="43.72195" lon="6.95369">
        <ele>902.63</ele>
        <time>2015-09-20T09:08:51Z</time>
      </trkpt>
      <trkpt lat="43.72201" lon="6.9539">
        <ele>900.14</ele>
        <time>2015-09-20T09:08:56Z</time>
      </trkpt>
      <trkpt lat="43.72205" lon="6.95413">
        <ele>898.55</ele>
        <time>2015-09-20T09:08:59Z</time>
      </trkpt>
      <trkpt lat="43.72209" lon="6.95429">
        <ele>895.97</ele>
        <time>2015-09-20T09:09:04Z</time>
      </trkpt>
      <trkpt lat="43.72212" lon="6.95436">
        <ele>895.32</ele>
        <time>2015-09-20T09:09:06Z</time>
      </trkpt>
      <trkpt lat="43.72213" lon="6.95444">
        <ele>894.9</ele>
        <time>2015-09-20T09:09:08Z</time>
      </trkpt>
      <trkpt lat="43.72222" lon="6.95463">
        <ele>891.27</ele>
        <time>2015-09-20T09:09:12Z</time>
      </trkpt>
      <trkpt lat="43.72237" lon="6.95492">
        <ele>887.44</ele>
        <time>2015-09-20T09:09:19Z</time>
      </trkpt>
      <trkpt lat="43.7225" lon="6.95504">
        <ele>883.33</ele>
        <time>2015-09-20T09:09:24Z</time>
      </trkpt>
      <trkpt lat="43.72251" lon="6.95511">
        <ele>882.03</ele>
        <time>2015-09-20T09:09:25Z</time>
      </trkpt>
      <trkpt lat="43.72252" lon="6.95526">
        <ele>880.3</ele>
        <time>2015-09-20T09:09:27Z</time>
      </trkpt>
      <trkpt lat="43.72257" lon="6.95541">
        <ele>881.71</ele>
        <time>2015-09-20T09:09:30Z</time>
      </trkpt>
      <trkpt lat="43.72261" lon="6.9556">
        <ele>878.43</ele>
        <time>2015-09-20T09:09:33Z</time>
      </trkpt>
      <trkpt lat="43.72263" lon="6.95585">
        <ele>876.22</ele>
        <time>2015-09-20T09:09:40Z</time>
      </trkpt>
      <trkpt lat="43.72273" lon="6.95594">
        <ele>873.67</ele>
        <time>2015-09-20T09:09:44Z</time>
      </trkpt>
      <trkpt lat="43.72289" lon="6.95608">
        <ele>870.56</ele>
        <time>2015-09-20T09:09:48Z</time>
      </trkpt>
      <trkpt lat="43.72297" lon="6.95631">
        <ele>865.84</ele>
        <time>2015-09-20T09:09:53Z</time>
      </trkpt>
      <trkpt lat="43.72299" lon="6.95638">
        <ele>863.93</ele>
        <time>2015-09-20T09:09:55Z</time>
      </trkpt>
      <trkpt lat="43.72309" lon="6.95646">
        <ele>861.14</ele>
        <time>2015-09-20T09:09:58Z</time>
      </trkpt>
      <trkpt lat="43.72319" lon="6.95662">
        <ele>857.16</ele>
        <time>2015-09-20T09:10:01Z</time>
      </trkpt>
      <trkpt lat="43.72332" lon="6.9568">
        <ele>853.11</ele>
        <time>2015-09-20T09:10:04Z</time>
      </trkpt>
      <trkpt lat="43.72333" lon="6.95686">
        <ele>853.14</ele>
        <time>2015-09-20T09:10:05Z</time>
      </trkpt>
      <trkpt lat="43.7233" lon="6.95697">
        <ele>853.46</ele>
        <time>2015-09-20T09:10:07Z</time>
      </trkpt>
      <trkpt lat="43.72333" lon="6.95724">
        <ele>848.13</ele>
        <time>2015-09-20T09:10:12Z</time>
      </trkpt>
      <trkpt lat="43.72339" lon="6.95746">
        <ele>845.04</ele>
        <time>2015-09-20T09:10:17Z</time>
      </trkpt>
      <trkpt lat="43.72344" lon="6.9577">
        <ele>840.42</ele>
        <time>2015-09-20T09:10:21Z</time>
      </trkpt>
      <trkpt lat="43.72344" lon="6.95784">
        <ele>839.31</ele>
        <time>2015-09-20T09:10:23Z</time>
      </trkpt>
      <trkpt lat="43.72338" lon="6.95809">
        <ele>835.12</ele>
        <time>2015-09-20T09:10:27Z</time>
      </trkpt>
      <trkpt lat="43.72328" lon="6.9582">
        <ele>832.79</ele>
        <time>2015-09-20T09:10:29Z</time>
      </trkpt>
      <trkpt lat="43.72307" lon="6.95844">
        <ele>829.86</ele>
        <time>2015-09-20T09:10:33Z</time>
      </trkpt>
      <trkpt lat="43.72301" lon="6.95855">
        <ele>828.67</ele>
        <time>2015-09-20T09:10:35Z</time>
      </trkpt>
      <trkpt lat="43.72294" lon="6.95877">
        <ele>824.8</ele>
        <time>2015-09-20T09:10:38Z</time>
      </trkpt>
      <trkpt lat="43.72289" lon="6.95903">
        <ele>819.48</ele>
        <time>2015-09-20T09:10:42Z</time>
      </trkpt>
      <trkpt lat="43.72285" lon="6.95916">
        <ele>815.96</ele>
        <time>2015-09-20T09:10:45Z</time>
      </trkpt>
      <trkpt lat="43.72284" lon="6.95934">
        <ele>810.44</ele>
        <time>2015-09-20T09:10:49Z</time>
      </trkpt>
      <trkpt lat="43.72276" lon="6.9596">
        <ele>805.59</ele>
        <time>2015-09-20T09:10:53Z</time>
      </trkpt>
      <trkpt lat="43.72266" lon="6.95975">
        <ele>802.99</ele>
        <time>2015-09-20T09:10:55Z</time>
      </trkpt>
      <trkpt lat="43.72241" lon="6.96013">
        <ele>798.5</ele>
        <time>2015-09-20T09:11:01Z</time>
      </trkpt>
      <trkpt lat="43.7224" lon="6.96039">
        <ele>794.93</ele>
        <time>2015-09-20T09:11:04Z</time>
      </trkpt>
      <trkpt lat="43.72243" lon="6.96058">
        <ele>793.35</ele>
        <time>2015-09-20T09:11:06Z</time>
      </trkpt>
      <trkpt lat="43.72244" lon="6.9608">
        <ele>791.28</ele>
        <time>2015-09-20T09:11:08Z</time>
      </trkpt>
      <trkpt lat="43.72241" lon="6.96118">
        <ele>786.57</ele>
        <time>2015-09-20T09:11:13Z</time>
      </trkpt>
      <trkpt lat="43.72246" lon="6.9613">
        <ele>785.56</ele>
        <time>2015-09-20T09:11:16Z</time>
      </trkpt>
      <trkpt lat="43.72252" lon="6.96143">
        <ele>782.64</ele>
        <time>2015-09-20T09:11:18Z</time>
      </trkpt>
      <trkpt lat="43.72253" lon="6.96181">
        <ele>777.19</ele>
        <time>2015-09-20T09:11:22Z</time>
      </trkpt>
      <trkpt lat="43.72246" lon="6.96229">
        <ele>770.56</ele>
        <time>2015-09-20T09:11:26Z</time>
      </trkpt>
      <trkpt lat="43.72247" lon="6.96241">
        <ele>769.99</ele>
        <time>2015-09-20T09:11:27Z</time>
      </trkpt>
      <trkpt lat="43.72247" lon="6.96257">
        <ele>774.48</ele>
        <time>2015-09-20T09:11:30Z</time>
      </trkpt>
      <trkpt lat="43.72247" lon="6.96258">
        <ele>775.25</ele>
        <time>2015-09-20T09:11:32Z</time>
      </trkpt>
      <trkpt lat="43.72238" lon="6.96288">
        <ele>775.04</ele>
        <time>2015-09-20T09:11:43Z</time>
      </trkpt>
      <trkpt lat="43.72238" lon="6.96288">
        <ele>774.9</ele>
        <time>2015-09-20T09:11:46Z</time>
      </trkpt>
      <trkpt lat="43.72237" lon="6.96295">
        <ele>774.41</ele>
        <time>2015-09-20T09:11:59Z</time>
      </trkpt>
      <trkpt lat="43.72237" lon="6.96306">
        <ele>774.35</ele>
        <time>2015-09-20T09:12:12Z</time>
      </trkpt>
      <trkpt lat="43.72234" lon="6.96313">
        <ele>772.14</ele>
        <time>2015-09-20T09:17:05Z</time>
      </trkpt>
      <trkpt lat="43.72218" lon="6.96346">
        <ele>770.16</ele>
        <time>2015-09-20T09:17:12Z</time>
      </trkpt>
      <trkpt lat="43.72208" lon="6.96363">
        <ele>769.79</ele>
        <time>2015-09-20T09:17:15Z</time>
      </trkpt>
      <trkpt lat="43.72201" lon="6.96398">
        <ele>768.91</ele>
        <time>2015-09-20T09:17:20Z</time>
      </trkpt>
      <trkpt lat="43.72205" lon="6.96457">
        <ele>766.91</ele>
        <time>2015-09-20T09:17:30Z</time>
      </trkpt>
      <trkpt lat="43.72202" lon="6.96471">
        <ele>766.21</ele>
        <time>2015-09-20T09:17:35Z</time>
      </trkpt>
      <trkpt lat="43.72205" lon="6.9648">
        <ele>765.98</ele>
        <time>2015-09-20T09:17:39Z</time>
      </trkpt>
      <trkpt lat="43.72217" lon="6.96536">
        <ele>765.98</ele>
        <time>2015-09-20T09:17:53Z</time>
      </trkpt>
      <trkpt lat="43.72228" lon="6.96573">
        <ele>767.04</ele>
        <time>2015-09-20T09:18:04Z</time>
      </trkpt>
      <trkpt lat="43.72238" lon="6.96605">
        <ele>768.91</ele>
        <time>2015-09-20T09:18:14Z</time>
      </trkpt>
      <trkpt lat="43.7223" lon="6.96638">
        <ele>771.85</ele>
        <time>2015-09-20T09:18:27Z</time>
      </trkpt>
      <trkpt lat="43.7223" lon="6.96679">
        <ele>774.9</ele>
        <time>2015-09-20T09:18:42Z</time>
      </trkpt>
      <trkpt lat="43.72244" lon="6.96737">
        <ele>775.58</ele>
        <time>2015-09-20T09:18:59Z</time>
      </trkpt>
      <trkpt lat="43.72252" lon="6.96785">
        <ele>776.69</ele>
        <time>2015-09-20T09:19:15Z</time>
      </trkpt>
      <trkpt lat="43.72251" lon="6.96749">
        <ele>779.99</ele>
        <time>2015-09-20T09:19:30Z</time>
      </trkpt>
      <trkpt lat="43.72257" lon="6.96721">
        <ele>782.19</ele>
        <time>2015-09-20T09:19:43Z</time>
      </trkpt>
      <trkpt lat="43.72264" lon="6.9672">
        <ele>782.46</ele>
        <time>2015-09-20T09:19:47Z</time>
      </trkpt>
      <trkpt lat="43.72293" lon="6.96711">
        <ele>783.34</ele>
        <time>2015-09-20T09:20:03Z</time>
      </trkpt>
      <trkpt lat="43.72323" lon="6.96706">
        <ele>782.71</ele>
        <time>2015-09-20T09:20:15Z</time>
      </trkpt>
      <trkpt lat="43.72352" lon="6.96708">
        <ele>783.68</ele>
        <time>2015-09-20T09:20:28Z</time>
      </trkpt>
      <trkpt lat="43.72365" lon="6.9668">
        <ele>783.1</ele>
        <time>2015-09-20T09:20:39Z</time>
      </trkpt>
      <trkpt lat="43.72376" lon="6.96637">
        <ele>785.24</ele>
        <time>2015-09-20T09:20:54Z</time>
      </trkpt>
      <trkpt lat="43.72379" lon="6.96613">
        <ele>787.41</ele>
        <time>2015-09-20T09:21:06Z</time>
      </trkpt>
      <trkpt lat="43.7238" lon="6.96611">
        <ele>787.76</ele>
        <time>2015-09-20T09:21:07Z</time>
      </trkpt>
      <trkpt lat="43.7239" lon="6.96605">
        <ele>790.08</ele>
        <time>2015-09-20T09:21:16Z</time>
      </trkpt>
      <trkpt lat="43.72393" lon="6.96605">
        <ele>790.46</ele>
        <time>2015-09-20T09:21:18Z</time>
      </trkpt>
      <trkpt lat="43.72398" lon="6.96605">
        <ele>790.82</ele>
        <time>2015-09-20T09:21:22Z</time>
      </trkpt>
      <trkpt lat="43.72402" lon="6.96605">
        <ele>790.99</ele>
        <time>2015-09-20T09:21:25Z</time>
      </trkpt>
      <trkpt lat="43.72406" lon="6.96605">
        <ele>792.45</ele>
        <time>2015-09-20T09:21:28Z</time>
      </trkpt>
      <trkpt lat="43.72411" lon="6.96608">
        <ele>793.34</ele>
        <time>2015-09-20T09:21:33Z</time>
      </trkpt>
      <trkpt lat="43.72415" lon="6.96611">
        <ele>794.11</ele>
        <time>2015-09-20T09:21:37Z</time>
      </trkpt>
      <trkpt lat="43.72419" lon="6.9661">
        <ele>794.76</ele>
        <time>2015-09-20T09:21:41Z</time>
      </trkpt>
      <trkpt lat="43.72429" lon="6.96593">
        <ele>796.06</ele>
        <time>2015-09-20T09:21:53Z</time>
      </trkpt>
      <trkpt lat="43.72437" lon="6.9658">
        <ele>797.08</ele>
        <time>2015-09-20T09:22:02Z</time>
      </trkpt>
      <trkpt lat="43.72435" lon="6.9657">
        <ele>797.08</ele>
        <time>2015-09-20T09:22:07Z</time>
      </trkpt>
      <trkpt lat="43.72445" lon="6.96552">
        <ele>796.2</ele>
        <time>2015-09-20T09:22:15Z</time>
      </trkpt>
      <trkpt lat="43.72443" lon="6.96561">
        <ele>796.5</ele>
        <time>2015-09-20T09:22:23Z</time>
      </trkpt>
      <trkpt lat="43.7244" lon="6.96565">
        <ele>796.55</ele>
        <time>2015-09-20T09:22:26Z</time>
      </trkpt>
      <trkpt lat="43.72438" lon="6.96568">
        <ele>796.59</ele>
        <time>2015-09-20T09:22:28Z</time>
      </trkpt>
      <trkpt lat="43.72437" lon="6.96606">
        <ele>797.34</ele>
        <time>2015-09-20T09:22:45Z</time>
      </trkpt>
      <trkpt lat="43.72438" lon="6.96609">
        <ele>798.05</ele>
        <time>2015-09-20T09:22:51Z</time>
      </trkpt>
      <trkpt lat="43.72435" lon="6.96594">
        <ele>797.12</ele>
        <time>2015-09-20T09:22:56Z</time>
      </trkpt>
      <trkpt lat="43.72421" lon="6.96609">
        <ele>794.78</ele>
        <time>2015-09-20T09:23:04Z</time>
      </trkpt>
      <trkpt lat="43.72411" lon="6.96609">
        <ele>793.45</ele>
        <time>2015-09-20T09:23:12Z</time>
      </trkpt>
      <trkpt lat="43.72413" lon="6.966">
        <ele>794.39</ele>
        <time>2015-09-20T09:23:21Z</time>
      </trkpt>
      <trkpt lat="43.72413" lon="6.96581">
        <ele>796.31</ele>
        <time>2015-09-20T09:23:37Z</time>
      </trkpt>
      <trkpt lat="43.72413" lon="6.96592">
        <ele>795.05</ele>
        <time>2015-09-20T09:23:46Z</time>
      </trkpt>
      <trkpt lat="43.72411" lon="6.96604">
        <ele>793.76</ele>
        <time>2015-09-20T09:23:55Z</time>
      </trkpt>
      <trkpt lat="43.72421" lon="6.96616">
        <ele>794.42</ele>
        <time>2015-09-20T09:24:11Z</time>
      </trkpt>
      <trkpt lat="43.7243" lon="6.96643">
        <ele>796.74</ele>
        <time>2015-09-20T09:24:26Z</time>
      </trkpt>
      <trkpt lat="43.72431" lon="6.96648">
        <ele>797.41</ele>
        <time>2015-09-20T09:24:29Z</time>
      </trkpt>
      <trkpt lat="43.72434" lon="6.96669">
        <ele>799.38</ele>
        <time>2015-09-20T09:24:41Z</time>
      </trkpt>
      <trkpt lat="43.72443" lon="6.96685">
        <ele>801.48</ele>
        <time>2015-09-20T09:24:53Z</time>
      </trkpt>
      <trkpt lat="43.72461" lon="6.967">
        <ele>803.34</ele>
        <time>2015-09-20T09:25:09Z</time>
      </trkpt>
      <trkpt lat="43.72472" lon="6.96716">
        <ele>806.35</ele>
        <time>2015-09-20T09:25:25Z</time>
      </trkpt>
      <trkpt lat="43.72472" lon="6.96716">
        <ele>806.24</ele>
        <time>2015-09-20T09:25:28Z</time>
      </trkpt>
      <trkpt lat="43.72488" lon="6.96754">
        <ele>811.14</ele>
        <time>2015-09-20T09:26:06Z</time>
      </trkpt>
      <trkpt lat="43.72499" lon="6.96767">
        <ele>813.87</ele>
        <time>2015-09-20T09:26:29Z</time>
      </trkpt>
      <trkpt lat="43.725" lon="6.96766">
        <ele>814.63</ele>
        <time>2015-09-20T09:26:34Z</time>
      </trkpt>
      <trkpt lat="43.72499" lon="6.96759">
        <ele>814.42</ele>
        <time>2015-09-20T09:26:41Z</time>
      </trkpt>
      <trkpt lat="43.72507" lon="6.96753">
        <ele>816.18</ele>
        <time>2015-09-20T09:26:50Z</time>
      </trkpt>
      <trkpt lat="43.72521" lon="6.96764">
        <ele>818.32</ele>
        <time>2015-09-20T09:27:04Z</time>
      </trkpt>
      <trkpt lat="43.72534" lon="6.96776">
        <ele>820.31</ele>
        <time>2015-09-20T09:27:18Z</time>
      </trkpt>
      <trkpt lat="43.7255" lon="6.96787">
        <ele>822.77</ele>
        <time>2015-09-20T09:27:33Z</time>
      </trkpt>
      <trkpt lat="43.72565" lon="6.96798">
        <ele>825.44</ele>
        <time>2015-09-20T09:27:48Z</time>
      </trkpt>
      <trkpt lat="43.7257" lon="6.96801">
        <ele>826.18</ele>
        <time>2015-09-20T09:27:52Z</time>
      </trkpt>
      <trkpt lat="43.72575" lon="6.96807">
        <ele>827.19</ele>
        <time>2015-09-20T09:27:57Z</time>
      </trkpt>
      <trkpt lat="43.72584" lon="6.96821">
        <ele>828.27</ele>
        <time>2015-09-20T09:28:07Z</time>
      </trkpt>
      <trkpt lat="43.72602" lon="6.96838">
        <ele>830.5</ele>
        <time>2015-09-20T09:28:23Z</time>
      </trkpt>
      <trkpt lat="43.72617" lon="6.9685">
        <ele>832.67</ele>
        <time>2015-09-20T09:28:37Z</time>
      </trkpt>
      <trkpt lat="43.72631" lon="6.96863">
        <ele>835.45</ele>
        <time>2015-09-20T09:28:51Z</time>
      </trkpt>
      <trkpt lat="43.72644" lon="6.96854">
        <ele>837.97</ele>
        <time>2015-09-20T09:29:04Z</time>
      </trkpt>
      <trkpt lat="43.72649" lon="6.96851">
        <ele>838.85</ele>
        <time>2015-09-20T09:29:08Z</time>
      </trkpt>
      <trkpt lat="43.72661" lon="6.96845">
        <ele>840.08</ele>
        <time>2015-09-20T09:29:17Z</time>
      </trkpt>
      <trkpt lat="43.72682" lon="6.96842">
        <ele>841.86</ele>
        <time>2015-09-20T09:29:34Z</time>
      </trkpt>
      <trkpt lat="43.72695" lon="6.96818">
        <ele>842.83</ele>
        <time>2015-09-20T09:29:47Z</time>
      </trkpt>
      <trkpt lat="43.72708" lon="6.96784">
        <ele>844.66</ele>
        <time>2015-09-20T09:30:02Z</time>
      </trkpt>
      <trkpt lat="43.72716" lon="6.96748">
        <ele>846.39</ele>
        <time>2015-09-20T09:30:17Z</time>
      </trkpt>
      <trkpt lat="43.72721" lon="6.96714">
        <ele>848.12</ele>
        <time>2015-09-20T09:30:32Z</time>
      </trkpt>
      <trkpt lat="43.72727" lon="6.96674">
        <ele>850.11</ele>
        <time>2015-09-20T09:30:49Z</time>
      </trkpt>
      <trkpt lat="43.72731" lon="6.96634">
        <ele>852.01</ele>
        <time>2015-09-20T09:31:06Z</time>
      </trkpt>
      <trkpt lat="43.72736" lon="6.96594">
        <ele>854.02</ele>
        <time>2015-09-20T09:31:22Z</time>
      </trkpt>
      <trkpt lat="43.72736" lon="6.96554">
        <ele>856.01</ele>
        <time>2015-09-20T09:31:37Z</time>
      </trkpt>
      <trkpt lat="43.72735" lon="6.96511">
        <ele>857.93</ele>
        <time>2015-09-20T09:31:52Z</time>
      </trkpt>
      <trkpt lat="43.72733" lon="6.96466">
        <ele>860.23</ele>
        <time>2015-09-20T09:32:08Z</time>
      </trkpt>
      <trkpt lat="43.72733" lon="6.96416">
        <ele>862.28</ele>
        <time>2015-09-20T09:32:26Z</time>
      </trkpt>
      <trkpt lat="43.7273" lon="6.96386">
        <ele>863.85</ele>
        <time>2015-09-20T09:32:37Z</time>
      </trkpt>
      <trkpt lat="43.72729" lon="6.96345">
        <ele>865.75</ele>
        <time>2015-09-20T09:32:52Z</time>
      </trkpt>
      <trkpt lat="43.72728" lon="6.96302">
        <ele>867.79</ele>
        <time>2015-09-20T09:33:08Z</time>
      </trkpt>
      <trkpt lat="43.72729" lon="6.96257">
        <ele>869.89</ele>
        <time>2015-09-20T09:33:25Z</time>
      </trkpt>
      <trkpt lat="43.7274" lon="6.96214">
        <ele>871.88</ele>
        <time>2015-09-20T09:33:41Z</time>
      </trkpt>
      <trkpt lat="43.72758" lon="6.96171">
        <ele>874.3</ele>
        <time>2015-09-20T09:33:58Z</time>
      </trkpt>
      <trkpt lat="43.72779" lon="6.96139">
        <ele>876.41</ele>
        <time>2015-09-20T09:34:13Z</time>
      </trkpt>
      <trkpt lat="43.72806" lon="6.96107">
        <ele>879.13</ele>
        <time>2015-09-20T09:34:31Z</time>
      </trkpt>
      <trkpt lat="43.72834" lon="6.96087">
        <ele>881.33</ele>
        <time>2015-09-20T09:34:47Z</time>
      </trkpt>
      <trkpt lat="43.72863" lon="6.96072">
        <ele>883.39</ele>
        <time>2015-09-20T09:35:03Z</time>
      </trkpt>
      <trkpt lat="43.72896" lon="6.96052">
        <ele>885.58</ele>
        <time>2015-09-20T09:35:21Z</time>
      </trkpt>
      <trkpt lat="43.72923" lon="6.96037">
        <ele>887.32</ele>
        <time>2015-09-20T09:35:35Z</time>
      </trkpt>
      <trkpt lat="43.72951" lon="6.96021">
        <ele>889.1</ele>
        <time>2015-09-20T09:35:50Z</time>
      </trkpt>
      <trkpt lat="43.7298" lon="6.96001">
        <ele>891.59</ele>
        <time>2015-09-20T09:36:06Z</time>
      </trkpt>
      <trkpt lat="43.73007" lon="6.95989">
        <ele>893.4</ele>
        <time>2015-09-20T09:36:20Z</time>
      </trkpt>
      <trkpt lat="43.73042" lon="6.95981">
        <ele>895.96</ele>
        <time>2015-09-20T09:36:37Z</time>
      </trkpt>
      <trkpt lat="43.73068" lon="6.95975">
        <ele>898.01</ele>
        <time>2015-09-20T09:36:51Z</time>
      </trkpt>
      <trkpt lat="43.73098" lon="6.95954">
        <ele>900</ele>
        <time>2015-09-20T09:37:07Z</time>
      </trkpt>
      <trkpt lat="43.73124" lon="6.95938">
        <ele>902.02</ele>
        <time>2015-09-20T09:37:21Z</time>
      </trkpt>
      <trkpt lat="43.73152" lon="6.95919">
        <ele>903.86</ele>
        <time>2015-09-20T09:37:37Z</time>
      </trkpt>
      <trkpt lat="43.73177" lon="6.95903">
        <ele>905.79</ele>
        <time>2015-09-20T09:37:51Z</time>
      </trkpt>
      <trkpt lat="43.73202" lon="6.9588">
        <ele>907.76</ele>
        <time>2015-09-20T09:38:06Z</time>
      </trkpt>
      <trkpt lat="43.7323" lon="6.95844">
        <ele>910.38</ele>
        <time>2015-09-20T09:38:25Z</time>
      </trkpt>
      <trkpt lat="43.73257" lon="6.95816">
        <ele>912.64</ele>
        <time>2015-09-20T09:38:41Z</time>
      </trkpt>
      <trkpt lat="43.73284" lon="6.95806">
        <ele>914.46</ele>
        <time>2015-09-20T09:38:55Z</time>
      </trkpt>
      <trkpt lat="43.73317" lon="6.95807">
        <ele>916.87</ele>
        <time>2015-09-20T09:39:12Z</time>
      </trkpt>
      <trkpt lat="43.73344" lon="6.95806">
        <ele>919.15</ele>
        <time>2015-09-20T09:39:27Z</time>
      </trkpt>
      <trkpt lat="43.73367" lon="6.95799">
        <ele>920.74</ele>
        <time>2015-09-20T09:39:40Z</time>
      </trkpt>
      <trkpt lat="43.73393" lon="6.95794">
        <ele>922.89</ele>
        <time>2015-09-20T09:39:54Z</time>
      </trkpt>
      <trkpt lat="43.73393" lon="6.95753">
        <ele>925.21</ele>
        <time>2015-09-20T09:40:10Z</time>
      </trkpt>
      <trkpt lat="43.7338" lon="6.9572">
        <ele>926.43</ele>
        <time>2015-09-20T09:40:24Z</time>
      </trkpt>
      <trkpt lat="43.73388" lon="6.95677">
        <ele>928.05</ele>
        <time>2015-09-20T09:40:40Z</time>
      </trkpt>
      <trkpt lat="43.73407" lon="6.95631">
        <ele>930.55</ele>
        <time>2015-09-20T09:40:59Z</time>
      </trkpt>
      <trkpt lat="43.73433" lon="6.95602">
        <ele>932.85</ele>
        <time>2015-09-20T09:41:16Z</time>
      </trkpt>
      <trkpt lat="43.73456" lon="6.95574">
        <ele>935.09</ele>
        <time>2015-09-20T09:41:32Z</time>
      </trkpt>
      <trkpt lat="43.73459" lon="6.95546">
        <ele>936.3</ele>
        <time>2015-09-20T09:41:44Z</time>
      </trkpt>
      <trkpt lat="43.73459" lon="6.95508">
        <ele>938.26</ele>
        <time>2015-09-20T09:41:58Z</time>
      </trkpt>
      <trkpt lat="43.73461" lon="6.95454">
        <ele>940.86</ele>
        <time>2015-09-20T09:42:18Z</time>
      </trkpt>
      <trkpt lat="43.73461" lon="6.95406">
        <ele>943.45</ele>
        <time>2015-09-20T09:42:36Z</time>
      </trkpt>
      <trkpt lat="43.73466" lon="6.95367">
        <ele>945.57</ele>
        <time>2015-09-20T09:42:51Z</time>
      </trkpt>
      <trkpt lat="43.73476" lon="6.95329">
        <ele>947.66</ele>
        <time>2015-09-20T09:43:06Z</time>
      </trkpt>
      <trkpt lat="43.73497" lon="6.95291">
        <ele>949.99</ele>
        <time>2015-09-20T09:43:24Z</time>
      </trkpt>
      <trkpt lat="43.73518" lon="6.95263">
        <ele>951.82</ele>
        <time>2015-09-20T09:43:39Z</time>
      </trkpt>
      <trkpt lat="43.73537" lon="6.95231">
        <ele>953.74</ele>
        <time>2015-09-20T09:43:55Z</time>
      </trkpt>
      <trkpt lat="43.7356" lon="6.95201">
        <ele>956.01</ele>
        <time>2015-09-20T09:44:12Z</time>
      </trkpt>
      <trkpt lat="43.73583" lon="6.95174">
        <ele>958.45</ele>
        <time>2015-09-20T09:44:28Z</time>
      </trkpt>
      <trkpt lat="43.73608" lon="6.95153">
        <ele>960.78</ele>
        <time>2015-09-20T09:44:44Z</time>
      </trkpt>
      <trkpt lat="43.73615" lon="6.95141">
        <ele>961.75</ele>
        <time>2015-09-20T09:44:50Z</time>
      </trkpt>
      <trkpt lat="43.73615" lon="6.95125">
        <ele>962.26</ele>
        <time>2015-09-20T09:44:56Z</time>
      </trkpt>
      <trkpt lat="43.7359" lon="6.95108">
        <ele>964.32</ele>
        <time>2015-09-20T09:45:11Z</time>
      </trkpt>
      <trkpt lat="43.73554" lon="6.95107">
        <ele>966.06</ele>
        <time>2015-09-20T09:45:28Z</time>
      </trkpt>
      <trkpt lat="43.73511" lon="6.95108">
        <ele>969.17</ele>
        <time>2015-09-20T09:45:49Z</time>
      </trkpt>
      <trkpt lat="43.73482" lon="6.95106">
        <ele>971.28</ele>
        <time>2015-09-20T09:46:04Z</time>
      </trkpt>
      <trkpt lat="43.73446" lon="6.95102">
        <ele>973.87</ele>
        <time>2015-09-20T09:46:22Z</time>
      </trkpt>
      <trkpt lat="43.73408" lon="6.95082">
        <ele>976.9</ele>
        <time>2015-09-20T09:46:43Z</time>
      </trkpt>
      <trkpt lat="43.7338" lon="6.95105">
        <ele>978.99</ele>
        <time>2015-09-20T09:46:59Z</time>
      </trkpt>
      <trkpt lat="43.7336" lon="6.95138">
        <ele>981.17</ele>
        <time>2015-09-20T09:47:15Z</time>
      </trkpt>
      <trkpt lat="43.73337" lon="6.95168">
        <ele>983.65</ele>
        <time>2015-09-20T09:47:32Z</time>
      </trkpt>
      <trkpt lat="43.73315" lon="6.95184">
        <ele>985.13</ele>
        <time>2015-09-20T09:47:45Z</time>
      </trkpt>
      <trkpt lat="43.73284" lon="6.95187">
        <ele>987.45</ele>
        <time>2015-09-20T09:48:02Z</time>
      </trkpt>
      <trkpt lat="43.73255" lon="6.95179">
        <ele>989.44</ele>
        <time>2015-09-20T09:48:17Z</time>
      </trkpt>
      <trkpt lat="43.73231" lon="6.95175">
        <ele>991.08</ele>
        <time>2015-09-20T09:48:31Z</time>
      </trkpt>
      <trkpt lat="43.73197" lon="6.95169">
        <ele>994.01</ele>
        <time>2015-09-20T09:48:50Z</time>
      </trkpt>
      <trkpt lat="43.73175" lon="6.95192">
        <ele>996.18</ele>
        <time>2015-09-20T09:49:04Z</time>
      </trkpt>
      <trkpt lat="43.73172" lon="6.95198">
        <ele>996.54</ele>
        <time>2015-09-20T09:49:07Z</time>
      </trkpt>
      <trkpt lat="43.7317" lon="6.95237">
        <ele>998.18</ele>
        <time>2015-09-20T09:49:22Z</time>
      </trkpt>
      <trkpt lat="43.73166" lon="6.95275">
        <ele>999.88</ele>
        <time>2015-09-20T09:49:36Z</time>
      </trkpt>
      <trkpt lat="43.73148" lon="6.95313">
        <ele>1002.27</ele>
        <time>2015-09-20T09:49:52Z</time>
      </trkpt>
      <trkpt lat="43.7313" lon="6.95339">
        <ele>1004.23</ele>
        <time>2015-09-20T09:50:06Z</time>
      </trkpt>
      <trkpt lat="43.7312" lon="6.95343">
        <ele>1004.74</ele>
        <time>2015-09-20T09:50:11Z</time>
      </trkpt>
      <trkpt lat="43.73112" lon="6.95327">
        <ele>1006.15</ele>
        <time>2015-09-20T09:50:19Z</time>
      </trkpt>
      <trkpt lat="43.73125" lon="6.95297">
        <ele>1007.75</ele>
        <time>2015-09-20T09:50:33Z</time>
      </trkpt>
      <trkpt lat="43.73133" lon="6.95261">
        <ele>1009.4</ele>
        <time>2015-09-20T09:50:48Z</time>
      </trkpt>
      <trkpt lat="43.73133" lon="6.95258">
        <ele>1009.56</ele>
        <time>2015-09-20T09:50:49Z</time>
      </trkpt>
      <trkpt lat="43.73132" lon="6.95245">
        <ele>1010.44</ele>
        <time>2015-09-20T09:50:54Z</time>
      </trkpt>
      <trkpt lat="43.73119" lon="6.95241">
        <ele>1011.45</ele>
        <time>2015-09-20T09:51:03Z</time>
      </trkpt>
      <trkpt lat="43.73101" lon="6.9527">
        <ele>1013.51</ele>
        <time>2015-09-20T09:51:20Z</time>
      </trkpt>
      <trkpt lat="43.73077" lon="6.95289">
        <ele>1014.73</ele>
        <time>2015-09-20T09:51:33Z</time>
      </trkpt>
      <trkpt lat="43.73047" lon="6.95285">
        <ele>1017.46</ele>
        <time>2015-09-20T09:51:47Z</time>
      </trkpt>
      <trkpt lat="43.7302" lon="6.95269">
        <ele>1018</ele>
        <time>2015-09-20T09:52:01Z</time>
      </trkpt>
      <trkpt lat="43.72992" lon="6.95268">
        <ele>1019.68</ele>
        <time>2015-09-20T09:52:16Z</time>
      </trkpt>
      <trkpt lat="43.7297" lon="6.95262">
        <ele>1022.68</ele>
        <time>2015-09-20T09:52:30Z</time>
      </trkpt>
      <trkpt lat="43.72957" lon="6.95248">
        <ele>1025.28</ele>
        <time>2015-09-20T09:52:43Z</time>
      </trkpt>
      <trkpt lat="43.72966" lon="6.95226">
        <ele>1027.64</ele>
        <time>2015-09-20T09:52:56Z</time>
      </trkpt>
      <trkpt lat="43.72977" lon="6.95203">
        <ele>1029.63</ele>
        <time>2015-09-20T09:53:11Z</time>
      </trkpt>
      <trkpt lat="43.72978" lon="6.95201">
        <ele>1029.74</ele>
        <time>2015-09-20T09:53:12Z</time>
      </trkpt>
      <trkpt lat="43.72983" lon="6.95194">
        <ele>1030.37</ele>
        <time>2015-09-20T09:53:17Z</time>
      </trkpt>
      <trkpt lat="43.72996" lon="6.95164">
        <ele>1032.97</ele>
        <time>2015-09-20T09:53:34Z</time>
      </trkpt>
      <trkpt lat="43.7299" lon="6.95151">
        <ele>1034</ele>
        <time>2015-09-20T09:53:41Z</time>
      </trkpt>
      <trkpt lat="43.72968" lon="6.95149">
        <ele>1035.76</ele>
        <time>2015-09-20T09:53:57Z</time>
      </trkpt>
      <trkpt lat="43.72947" lon="6.95141">
        <ele>1037.87</ele>
        <time>2015-09-20T09:54:11Z</time>
      </trkpt>
      <trkpt lat="43.7292" lon="6.95138">
        <ele>1040.78</ele>
        <time>2015-09-20T09:54:30Z</time>
      </trkpt>
      <trkpt lat="43.729" lon="6.95136">
        <ele>1042.71</ele>
        <time>2015-09-20T09:54:44Z</time>
      </trkpt>
      <trkpt lat="43.72882" lon="6.95126">
        <ele>1044.67</ele>
        <time>2015-09-20T09:54:57Z</time>
      </trkpt>
      <trkpt lat="43.7288" lon="6.95123">
        <ele>1044.97</ele>
        <time>2015-09-20T09:54:59Z</time>
      </trkpt>
      <trkpt lat="43.72887" lon="6.95108">
        <ele>1045.93</ele>
        <time>2015-09-20T09:55:08Z</time>
      </trkpt>
      <trkpt lat="43.72892" lon="6.95104">
        <ele>1046.79</ele>
        <time>2015-09-20T09:55:12Z</time>
      </trkpt>
      <trkpt lat="43.72911" lon="6.95081">
        <ele>1048.17</ele>
        <time>2015-09-20T09:55:27Z</time>
      </trkpt>
      <trkpt lat="43.72929" lon="6.95062">
        <ele>1049.66</ele>
        <time>2015-09-20T09:55:41Z</time>
      </trkpt>
      <trkpt lat="43.7294" lon="6.95046">
        <ele>1051.17</ele>
        <time>2015-09-20T09:55:53Z</time>
      </trkpt>
      <trkpt lat="43.72941" lon="6.95046">
        <ele>1051.42</ele>
        <time>2015-09-20T09:55:57Z</time>
      </trkpt>
      <trkpt lat="43.72947" lon="6.9504">
        <ele>1051.59</ele>
        <time>2015-09-20T09:56:33Z</time>
      </trkpt>
      <trkpt lat="43.7297" lon="6.95017">
        <ele>1053.82</ele>
        <time>2015-09-20T09:56:48Z</time>
      </trkpt>
      <trkpt lat="43.72979" lon="6.94991">
        <ele>1056.01</ele>
        <time>2015-09-20T09:57:03Z</time>
      </trkpt>
      <trkpt lat="43.7299" lon="6.94966">
        <ele>1057.78</ele>
        <time>2015-09-20T09:57:17Z</time>
      </trkpt>
      <trkpt lat="43.72996" lon="6.94952">
        <ele>1058.79</ele>
        <time>2015-09-20T09:57:25Z</time>
      </trkpt>
      <trkpt lat="43.72995" lon="6.94945">
        <ele>1059.28</ele>
        <time>2015-09-20T09:57:29Z</time>
      </trkpt>
      <trkpt lat="43.72976" lon="6.94929">
        <ele>1061.62</ele>
        <time>2015-09-20T09:57:43Z</time>
      </trkpt>
      <trkpt lat="43.72954" lon="6.94928">
        <ele>1063.89</ele>
        <time>2015-09-20T09:57:59Z</time>
      </trkpt>
      <trkpt lat="43.72929" lon="6.94929">
        <ele>1066.08</ele>
        <time>2015-09-20T09:58:18Z</time>
      </trkpt>
      <trkpt lat="43.7291" lon="6.94928">
        <ele>1067.93</ele>
        <time>2015-09-20T09:58:32Z</time>
      </trkpt>
      <trkpt lat="43.72887" lon="6.94928">
        <ele>1069.9</ele>
        <time>2015-09-20T09:58:49Z</time>
      </trkpt>
      <trkpt lat="43.72874" lon="6.94921">
        <ele>1071.22</ele>
        <time>2015-09-20T09:58:58Z</time>
      </trkpt>
      <trkpt lat="43.72871" lon="6.94918">
        <ele>1072.44</ele>
        <time>2015-09-20T09:59:07Z</time>
      </trkpt>
      <trkpt lat="43.72867" lon="6.94912">
        <ele>1072.38</ele>
        <time>2015-09-20T09:59:16Z</time>
      </trkpt>
      <trkpt lat="43.72864" lon="6.94908">
        <ele>1072.88</ele>
        <time>2015-09-20T09:59:19Z</time>
      </trkpt>
      <trkpt lat="43.72857" lon="6.94901">
        <ele>1073.78</ele>
        <time>2015-09-20T09:59:25Z</time>
      </trkpt>
      <trkpt lat="43.72856" lon="6.9489">
        <ele>1074.29</ele>
        <time>2015-09-20T09:59:30Z</time>
      </trkpt>
      <trkpt lat="43.72861" lon="6.94864">
        <ele>1077.05</ele>
        <time>2015-09-20T09:59:44Z</time>
      </trkpt>
      <trkpt lat="43.72847" lon="6.9484">
        <ele>1079.51</ele>
        <time>2015-09-20T09:59:59Z</time>
      </trkpt>
      <trkpt lat="43.72835" lon="6.94808">
        <ele>1080.94</ele>
        <time>2015-09-20T10:00:15Z</time>
      </trkpt>
      <trkpt lat="43.72839" lon="6.94785">
        <ele>1082.47</ele>
        <time>2015-09-20T10:00:26Z</time>
      </trkpt>
      <trkpt lat="43.72831" lon="6.94756">
        <ele>1085.15</ele>
        <time>2015-09-20T10:00:41Z</time>
      </trkpt>
      <trkpt lat="43.72821" lon="6.94737">
        <ele>1087.66</ele>
        <time>2015-09-20T10:00:54Z</time>
      </trkpt>
      <trkpt lat="43.72806" lon="6.94718">
        <ele>1089.51</ele>
        <time>2015-09-20T10:01:09Z</time>
      </trkpt>
      <trkpt lat="43.72799" lon="6.94705">
        <ele>1090.85</ele>
        <time>2015-09-20T10:01:18Z</time>
      </trkpt>
      <trkpt lat="43.72795" lon="6.94677">
        <ele>1092.72</ele>
        <time>2015-09-20T10:01:34Z</time>
      </trkpt>
      <trkpt lat="43.72789" lon="6.94651">
        <ele>1094.24</ele>
        <time>2015-09-20T10:01:48Z</time>
      </trkpt>
      <trkpt lat="43.72787" lon="6.94638">
        <ele>1095.6</ele>
        <time>2015-09-20T10:02:00Z</time>
      </trkpt>
      <trkpt lat="43.72787" lon="6.94636">
        <ele>1095.83</ele>
        <time>2015-09-20T10:02:06Z</time>
      </trkpt>
      <trkpt lat="43.72781" lon="6.94633">
        <ele>1095.95</ele>
        <time>2015-09-20T10:05:42Z</time>
      </trkpt>
      <trkpt lat="43.7278" lon="6.94631">
        <ele>1096.1</ele>
        <time>2015-09-20T10:05:43Z</time>
      </trkpt>
      <trkpt lat="43.72777" lon="6.94604">
        <ele>1097.83</ele>
        <time>2015-09-20T10:05:57Z</time>
      </trkpt>
      <trkpt lat="43.72782" lon="6.94577">
        <ele>1100.12</ele>
        <time>2015-09-20T10:06:11Z</time>
      </trkpt>
      <trkpt lat="43.72784" lon="6.94551">
        <ele>1101.09</ele>
        <time>2015-09-20T10:06:25Z</time>
      </trkpt>
      <trkpt lat="43.72786" lon="6.94538">
        <ele>1101.86</ele>
        <time>2015-09-20T10:06:32Z</time>
      </trkpt>
      <trkpt lat="43.72792" lon="6.945">
        <ele>1102.33</ele>
        <time>2015-09-20T10:06:46Z</time>
      </trkpt>
      <trkpt lat="43.728" lon="6.94442">
        <ele>1102.33</ele>
        <time>2015-09-20T10:07:00Z</time>
      </trkpt>
      <trkpt lat="43.72799" lon="6.94398">
        <ele>1103.62</ele>
        <time>2015-09-20T10:07:14Z</time>
      </trkpt>
      <trkpt lat="43.72786" lon="6.94391">
        <ele>1105.58</ele>
        <time>2015-09-20T10:07:29Z</time>
      </trkpt>
      <trkpt lat="43.72785" lon="6.94393">
        <ele>1106.88</ele>
        <time>2015-09-20T10:07:34Z</time>
      </trkpt>
      <trkpt lat="43.72772" lon="6.94385">
        <ele>1106.65</ele>
        <time>2015-09-20T10:07:59Z</time>
      </trkpt>
      <trkpt lat="43.72749" lon="6.94396">
        <ele>1106.85</ele>
        <time>2015-09-20T10:08:19Z</time>
      </trkpt>
      <trkpt lat="43.7273" lon="6.94403">
        <ele>1108.28</ele>
        <time>2015-09-20T10:08:35Z</time>
      </trkpt>
      <trkpt lat="43.72721" lon="6.94408">
        <ele>1109.34</ele>
        <time>2015-09-20T10:08:47Z</time>
      </trkpt>
      <trkpt lat="43.72691" lon="6.94421">
        <ele>1110.92</ele>
        <time>2015-09-20T10:09:13Z</time>
      </trkpt>
      <trkpt lat="43.72686" lon="6.94424">
        <ele>1111.71</ele>
        <time>2015-09-20T10:09:23Z</time>
      </trkpt>
      <trkpt lat="43.72696" lon="6.94447">
        <ele>1114.47</ele>
        <time>2015-09-20T10:35:07Z</time>
      </trkpt>
      <trkpt lat="43.72684" lon="6.94485">
        <ele>1114.93</ele>
        <time>2015-09-20T10:35:13Z</time>
      </trkpt>
      <trkpt lat="43.72687" lon="6.94532">
        <ele>1111.36</ele>
        <time>2015-09-20T10:35:19Z</time>
      </trkpt>
      <trkpt lat="43.72702" lon="6.94579">
        <ele>1108.08</ele>
        <time>2015-09-20T10:35:25Z</time>
      </trkpt>
      <trkpt lat="43.72714" lon="6.94605">
        <ele>1103.34</ele>
        <time>2015-09-20T10:35:29Z</time>
      </trkpt>
      <trkpt lat="43.72709" lon="6.94627">
        <ele>1100.9</ele>
        <time>2015-09-20T10:35:32Z</time>
      </trkpt>
      <trkpt lat="43.72709" lon="6.94652">
        <ele>1099.66</ele>
        <time>2015-09-20T10:35:35Z</time>
      </trkpt>
      <trkpt lat="43.7271" lon="6.9467">
        <ele>1099.01</ele>
        <time>2015-09-20T10:35:37Z</time>
      </trkpt>
      <trkpt lat="43.72709" lon="6.94689">
        <ele>1098.19</ele>
        <time>2015-09-20T10:35:39Z</time>
      </trkpt>
      <trkpt lat="43.72702" lon="6.94741">
        <ele>1095.12</ele>
        <time>2015-09-20T10:35:45Z</time>
      </trkpt>
      <trkpt lat="43.72671" lon="6.94757">
        <ele>1094.18</ele>
        <time>2015-09-20T10:35:51Z</time>
      </trkpt>
      <trkpt lat="43.72665" lon="6.94756">
        <ele>1094.27</ele>
        <time>2015-09-20T10:35:52Z</time>
      </trkpt>
      <trkpt lat="43.72624" lon="6.94754">
        <ele>1092.08</ele>
        <time>2015-09-20T10:35:59Z</time>
      </trkpt>
      <trkpt lat="43.72606" lon="6.94742">
        <ele>1094.75</ele>
        <time>2015-09-20T10:36:04Z</time>
      </trkpt>
      <trkpt lat="43.72604" lon="6.94744">
        <ele>1094.95</ele>
        <time>2015-09-20T10:36:05Z</time>
      </trkpt>
      <trkpt lat="43.72601" lon="6.94748">
        <ele>1095</ele>
        <time>2015-09-20T10:36:06Z</time>
      </trkpt>
      <trkpt lat="43.72589" lon="6.94768">
        <ele>1094.39</ele>
        <time>2015-09-20T10:36:10Z</time>
      </trkpt>
      <trkpt lat="43.72592" lon="6.94839">
        <ele>1091.22</ele>
        <time>2015-09-20T10:36:19Z</time>
      </trkpt>
      <trkpt lat="43.72592" lon="6.94848">
        <ele>1090.72</ele>
        <time>2015-09-20T10:36:20Z</time>
      </trkpt>
      <trkpt lat="43.72593" lon="6.94892">
        <ele>1088.55</ele>
        <time>2015-09-20T10:36:25Z</time>
      </trkpt>
      <trkpt lat="43.7259" lon="6.9492">
        <ele>1086.2</ele>
        <time>2015-09-20T10:36:28Z</time>
      </trkpt>
      <trkpt lat="43.72592" lon="6.94952">
        <ele>1085.25</ele>
        <time>2015-09-20T10:36:32Z</time>
      </trkpt>
      <trkpt lat="43.726" lon="6.94976">
        <ele>1082.85</ele>
        <time>2015-09-20T10:36:36Z</time>
      </trkpt>
      <trkpt lat="43.72611" lon="6.94952">
        <ele>1082.43</ele>
        <time>2015-09-20T10:36:42Z</time>
      </trkpt>
      <trkpt lat="43.72625" lon="6.94937">
        <ele>1079.37</ele>
        <time>2015-09-20T10:36:46Z</time>
      </trkpt>
      <trkpt lat="43.7264" lon="6.94945">
        <ele>1076.98</ele>
        <time>2015-09-20T10:36:49Z</time>
      </trkpt>
      <trkpt lat="43.72646" lon="6.94951">
        <ele>1074.8</ele>
        <time>2015-09-20T10:36:51Z</time>
      </trkpt>
      <trkpt lat="43.72658" lon="6.94941">
        <ele>1072.03</ele>
        <time>2015-09-20T10:36:55Z</time>
      </trkpt>
      <trkpt lat="43.7268" lon="6.94947">
        <ele>1068.71</ele>
        <time>2015-09-20T10:37:00Z</time>
      </trkpt>
      <trkpt lat="43.72698" lon="6.94975">
        <ele>1062.86</ele>
        <time>2015-09-20T10:37:05Z</time>
      </trkpt>
      <trkpt lat="43.7269" lon="6.95011">
        <ele>1060.59</ele>
        <time>2015-09-20T10:37:11Z</time>
      </trkpt>
      <trkpt lat="43.7269" lon="6.95054">
        <ele>1057.95</ele>
        <time>2015-09-20T10:37:20Z</time>
      </trkpt>
      <trkpt lat="43.72694" lon="6.95054">
        <ele>1056.67</ele>
        <time>2015-09-20T10:37:21Z</time>
      </trkpt>
      <trkpt lat="43.72702" lon="6.95055">
        <ele>1054.9</ele>
        <time>2015-09-20T10:37:23Z</time>
      </trkpt>
      <trkpt lat="43.72713" lon="6.95054">
        <ele>1052.22</ele>
        <time>2015-09-20T10:37:25Z</time>
      </trkpt>
      <trkpt lat="43.7272" lon="6.95054">
        <ele>1050.93</ele>
        <time>2015-09-20T10:37:27Z</time>
      </trkpt>
      <trkpt lat="43.72734" lon="6.95065">
        <ele>1047.85</ele>
        <time>2015-09-20T10:37:33Z</time>
      </trkpt>
      <trkpt lat="43.72738" lon="6.95068">
        <ele>1047.63</ele>
        <time>2015-09-20T10:37:34Z</time>
      </trkpt>
      <trkpt lat="43.72763" lon="6.95097">
        <ele>1047.97</ele>
        <time>2015-09-20T10:37:44Z</time>
      </trkpt>
      <trkpt lat="43.7277" lon="6.95103">
        <ele>1049.58</ele>
        <time>2015-09-20T10:37:48Z</time>
      </trkpt>
      <trkpt lat="43.72781" lon="6.95124">
        <ele>1050.42</ele>
        <time>2015-09-20T10:37:58Z</time>
      </trkpt>
      <trkpt lat="43.72798" lon="6.95151">
        <ele>1047.58</ele>
        <time>2015-09-20T10:38:05Z</time>
      </trkpt>
      <trkpt lat="43.72823" lon="6.95176">
        <ele>1043.84</ele>
        <time>2015-09-20T10:38:13Z</time>
      </trkpt>
      <trkpt lat="43.7283" lon="6.95197">
        <ele>1045.73</ele>
        <time>2015-09-20T10:38:18Z</time>
      </trkpt>
      <trkpt lat="43.72839" lon="6.95202">
        <ele>1043.5</ele>
        <time>2015-09-20T10:38:20Z</time>
      </trkpt>
      <trkpt lat="43.72851" lon="6.95206">
        <ele>1041.41</ele>
        <time>2015-09-20T10:38:22Z</time>
      </trkpt>
      <trkpt lat="43.72875" lon="6.95226">
        <ele>1036.84</ele>
        <time>2015-09-20T10:38:26Z</time>
      </trkpt>
      <trkpt lat="43.7289" lon="6.95238">
        <ele>1036.85</ele>
        <time>2015-09-20T10:38:30Z</time>
      </trkpt>
      <trkpt lat="43.72909" lon="6.95259">
        <ele>1031.87</ele>
        <time>2015-09-20T10:38:34Z</time>
      </trkpt>
      <trkpt lat="43.72912" lon="6.95267">
        <ele>1031.04</ele>
        <time>2015-09-20T10:38:35Z</time>
      </trkpt>
      <trkpt lat="43.72941" lon="6.953">
        <ele>1027.65</ele>
        <time>2015-09-20T10:38:43Z</time>
      </trkpt>
      <trkpt lat="43.72946" lon="6.95302">
        <ele>1027.21</ele>
        <time>2015-09-20T10:38:44Z</time>
      </trkpt>
      <trkpt lat="43.72974" lon="6.95315">
        <ele>1021.94</ele>
        <time>2015-09-20T10:38:48Z</time>
      </trkpt>
      <trkpt lat="43.72997" lon="6.95327">
        <ele>1019.39</ele>
        <time>2015-09-20T10:38:51Z</time>
      </trkpt>
      <trkpt lat="43.73033" lon="6.95312">
        <ele>1018.53</ele>
        <time>2015-09-20T10:38:57Z</time>
      </trkpt>
      <trkpt lat="43.73055" lon="6.95303">
        <ele>1020.33</ele>
        <time>2015-09-20T10:39:02Z</time>
      </trkpt>
      <trkpt lat="43.73074" lon="6.95304">
        <ele>1021.04</ele>
        <time>2015-09-20T10:39:10Z</time>
      </trkpt>
      <trkpt lat="43.73087" lon="6.9532">
        <ele>1017.51</ele>
        <time>2015-09-20T10:39:14Z</time>
      </trkpt>
      <trkpt lat="43.731" lon="6.95332">
        <ele>1015.31</ele>
        <time>2015-09-20T10:39:18Z</time>
      </trkpt>
      <trkpt lat="43.73105" lon="6.95356">
        <ele>1011.19</ele>
        <time>2015-09-20T10:39:22Z</time>
      </trkpt>
      <trkpt lat="43.73103" lon="6.95364">
        <ele>1009.36</ele>
        <time>2015-09-20T10:39:24Z</time>
      </trkpt>
      <trkpt lat="43.73087" lon="6.95396">
        <ele>1003.42</ele>
        <time>2015-09-20T10:39:29Z</time>
      </trkpt>
      <trkpt lat="43.73087" lon="6.95407">
        <ele>1002.76</ele>
        <time>2015-09-20T10:39:31Z</time>
      </trkpt>
      <trkpt lat="43.73089" lon="6.95429">
        <ele>999.58</ele>
        <time>2015-09-20T10:39:36Z</time>
      </trkpt>
      <trkpt lat="43.73074" lon="6.95457">
        <ele>994.35</ele>
        <time>2015-09-20T10:39:41Z</time>
      </trkpt>
      <trkpt lat="43.73088" lon="6.95468">
        <ele>991.68</ele>
        <time>2015-09-20T10:39:46Z</time>
      </trkpt>
      <trkpt lat="43.73109" lon="6.95474">
        <ele>989.94</ele>
        <time>2015-09-20T10:39:50Z</time>
      </trkpt>
      <trkpt lat="43.73119" lon="6.95475">
        <ele>987.39</ele>
        <time>2015-09-20T10:39:52Z</time>
      </trkpt>
      <trkpt lat="43.73134" lon="6.95485">
        <ele>983.06</ele>
        <time>2015-09-20T10:39:56Z</time>
      </trkpt>
      <trkpt lat="43.73136" lon="6.95498">
        <ele>979.48</ele>
        <time>2015-09-20T10:39:59Z</time>
      </trkpt>
      <trkpt lat="43.73134" lon="6.95501">
        <ele>979.03</ele>
        <time>2015-09-20T10:40:00Z</time>
      </trkpt>
      <trkpt lat="43.73132" lon="6.95523">
        <ele>974.35</ele>
        <time>2015-09-20T10:40:05Z</time>
      </trkpt>
      <trkpt lat="43.73126" lon="6.95539">
        <ele>970.16</ele>
        <time>2015-09-20T10:40:09Z</time>
      </trkpt>
      <trkpt lat="43.73124" lon="6.95546">
        <ele>967.99</ele>
        <time>2015-09-20T10:40:11Z</time>
      </trkpt>
      <trkpt lat="43.73131" lon="6.95553">
        <ele>963.85</ele>
        <time>2015-09-20T10:40:15Z</time>
      </trkpt>
      <trkpt lat="43.73137" lon="6.95552">
        <ele>962.41</ele>
        <time>2015-09-20T10:40:17Z</time>
      </trkpt>
      <trkpt lat="43.7316" lon="6.95552">
        <ele>957.96</ele>
        <time>2015-09-20T10:40:22Z</time>
      </trkpt>
      <trkpt lat="43.73175" lon="6.95554">
        <ele>954.33</ele>
        <time>2015-09-20T10:40:25Z</time>
      </trkpt>
      <trkpt lat="43.73184" lon="6.95555">
        <ele>951.78</ele>
        <time>2015-09-20T10:40:27Z</time>
      </trkpt>
      <trkpt lat="43.73196" lon="6.95563">
        <ele>945.89</ele>
        <time>2015-09-20T10:40:32Z</time>
      </trkpt>
      <trkpt lat="43.73202" lon="6.95568">
        <ele>941.84</ele>
        <time>2015-09-20T10:40:35Z</time>
      </trkpt>
      <trkpt lat="43.73213" lon="6.95571">
        <ele>938.29</ele>
        <time>2015-09-20T10:40:38Z</time>
      </trkpt>
      <trkpt lat="43.73218" lon="6.95571">
        <ele>937.18</ele>
        <time>2015-09-20T10:40:39Z</time>
      </trkpt>
      <trkpt lat="43.73232" lon="6.95565">
        <ele>933.73</ele>
        <time>2015-09-20T10:40:42Z</time>
      </trkpt>
      <trkpt lat="43.73242" lon="6.95563">
        <ele>931.08</ele>
        <time>2015-09-20T10:40:44Z</time>
      </trkpt>
      <trkpt lat="43.73261" lon="6.95567">
        <ele>926</ele>
        <time>2015-09-20T10:40:49Z</time>
      </trkpt>
      <trkpt lat="43.73266" lon="6.95568">
        <ele>924.62</ele>
        <time>2015-09-20T10:40:50Z</time>
      </trkpt>
      <trkpt lat="43.73295" lon="6.95543">
        <ele>922.09</ele>
        <time>2015-09-20T10:40:59Z</time>
      </trkpt>
      <trkpt lat="43.73303" lon="6.95536">
        <ele>920.94</ele>
        <time>2015-09-20T10:41:01Z</time>
      </trkpt>
      <trkpt lat="43.73316" lon="6.9553">
        <ele>919.24</ele>
        <time>2015-09-20T10:41:04Z</time>
      </trkpt>
      <trkpt lat="43.73324" lon="6.95529">
        <ele>918.41</ele>
        <time>2015-09-20T10:41:06Z</time>
      </trkpt>
      <trkpt lat="43.73339" lon="6.95527">
        <ele>914.08</ele>
        <time>2015-09-20T10:41:09Z</time>
      </trkpt>
      <trkpt lat="43.73344" lon="6.95527">
        <ele>913.53</ele>
        <time>2015-09-20T10:41:10Z</time>
      </trkpt>
      <trkpt lat="43.73356" lon="6.95531">
        <ele>911.84</ele>
        <time>2015-09-20T10:41:13Z</time>
      </trkpt>
      <trkpt lat="43.73361" lon="6.95537">
        <ele>910.74</ele>
        <time>2015-09-20T10:41:15Z</time>
      </trkpt>
      <trkpt lat="43.73362" lon="6.95554">
        <ele>908.11</ele>
        <time>2015-09-20T10:41:18Z</time>
      </trkpt>
      <trkpt lat="43.73357" lon="6.95562">
        <ele>909.1</ele>
        <time>2015-09-20T10:41:20Z</time>
      </trkpt>
      <trkpt lat="43.73346" lon="6.95575">
        <ele>907.56</ele>
        <time>2015-09-20T10:41:24Z</time>
      </trkpt>
      <trkpt lat="43.73336" lon="6.95594">
        <ele>903.7</ele>
        <time>2015-09-20T10:41:28Z</time>
      </trkpt>
      <trkpt lat="43.73332" lon="6.95605">
        <ele>903.55</ele>
        <time>2015-09-20T10:41:30Z</time>
      </trkpt>
      <trkpt lat="43.73309" lon="6.95642">
        <ele>900.14</ele>
        <time>2015-09-20T10:41:38Z</time>
      </trkpt>
      <trkpt lat="43.73306" lon="6.95645">
        <ele>898.49</ele>
        <time>2015-09-20T10:41:39Z</time>
      </trkpt>
      <trkpt lat="43.733" lon="6.9565">
        <ele>896.87</ele>
        <time>2015-09-20T10:41:41Z</time>
      </trkpt>
      <trkpt lat="43.73273" lon="6.95683">
        <ele>895.98</ele>
        <time>2015-09-20T10:41:51Z</time>
      </trkpt>
      <trkpt lat="43.73269" lon="6.95686">
        <ele>895.25</ele>
        <time>2015-09-20T10:41:52Z</time>
      </trkpt>
      <trkpt lat="43.73246" lon="6.95696">
        <ele>891.67</ele>
        <time>2015-09-20T10:41:57Z</time>
      </trkpt>
      <trkpt lat="43.73241" lon="6.95699">
        <ele>891.74</ele>
        <time>2015-09-20T10:41:58Z</time>
      </trkpt>
      <trkpt lat="43.73227" lon="6.95704">
        <ele>890.45</ele>
        <time>2015-09-20T10:42:01Z</time>
      </trkpt>
      <trkpt lat="43.73193" lon="6.95733">
        <ele>889.22</ele>
        <time>2015-09-20T10:42:11Z</time>
      </trkpt>
      <trkpt lat="43.73188" lon="6.9574">
        <ele>888.99</ele>
        <time>2015-09-20T10:42:13Z</time>
      </trkpt>
      <trkpt lat="43.7317" lon="6.95768">
        <ele>888.16</ele>
        <time>2015-09-20T10:42:21Z</time>
      </trkpt>
      <trkpt lat="43.73168" lon="6.95772">
        <ele>888.05</ele>
        <time>2015-09-20T10:42:22Z</time>
      </trkpt>
      <trkpt lat="43.73134" lon="6.95806">
        <ele>885.01</ele>
        <time>2015-09-20T10:42:32Z</time>
      </trkpt>
      <trkpt lat="43.73125" lon="6.95812">
        <ele>884.34</ele>
        <time>2015-09-20T10:42:34Z</time>
      </trkpt>
      <trkpt lat="43.73116" lon="6.95816">
        <ele>884.53</ele>
        <time>2015-09-20T10:42:38Z</time>
      </trkpt>
      <trkpt lat="43.73092" lon="6.95829">
        <ele>880.75</ele>
        <time>2015-09-20T10:42:44Z</time>
      </trkpt>
      <trkpt lat="43.73088" lon="6.95832">
        <ele>880.66</ele>
        <time>2015-09-20T10:42:45Z</time>
      </trkpt>
      <trkpt lat="43.73079" lon="6.95839">
        <ele>879.27</ele>
        <time>2015-09-20T10:42:47Z</time>
      </trkpt>
      <trkpt lat="43.73064" lon="6.95843">
        <ele>877.15</ele>
        <time>2015-09-20T10:42:50Z</time>
      </trkpt>
      <trkpt lat="43.73059" lon="6.95843">
        <ele>876.76</ele>
        <time>2015-09-20T10:42:51Z</time>
      </trkpt>
      <trkpt lat="43.73045" lon="6.95844">
        <ele>874.67</ele>
        <time>2015-09-20T10:42:54Z</time>
      </trkpt>
      <trkpt lat="43.73032" lon="6.95844">
        <ele>870.69</ele>
        <time>2015-09-20T10:42:57Z</time>
      </trkpt>
      <trkpt lat="43.73027" lon="6.95847">
        <ele>869.73</ele>
        <time>2015-09-20T10:42:59Z</time>
      </trkpt>
      <trkpt lat="43.73017" lon="6.95853">
        <ele>865.8</ele>
        <time>2015-09-20T10:43:03Z</time>
      </trkpt>
      <trkpt lat="43.73015" lon="6.95853">
        <ele>865.77</ele>
        <time>2015-09-20T10:43:04Z</time>
      </trkpt>
      <trkpt lat="43.73002" lon="6.95866">
        <ele>862.96</ele>
        <time>2015-09-20T10:43:09Z</time>
      </trkpt>
      <trkpt lat="43.72992" lon="6.9587">
        <ele>862.55</ele>
        <time>2015-09-20T10:43:11Z</time>
      </trkpt>
      <trkpt lat="43.72975" lon="6.95886">
        <ele>858.2</ele>
        <time>2015-09-20T10:43:15Z</time>
      </trkpt>
      <trkpt lat="43.72968" lon="6.95894">
        <ele>857.57</ele>
        <time>2015-09-20T10:43:17Z</time>
      </trkpt>
      <trkpt lat="43.72933" lon="6.95916">
        <ele>858.82</ele>
        <time>2015-09-20T10:43:27Z</time>
      </trkpt>
      <trkpt lat="43.72918" lon="6.95931">
        <ele>855.01</ele>
        <time>2015-09-20T10:43:31Z</time>
      </trkpt>
      <trkpt lat="43.72897" lon="6.95943">
        <ele>852.27</ele>
        <time>2015-09-20T10:43:35Z</time>
      </trkpt>
      <trkpt lat="43.72873" lon="6.95957">
        <ele>849.2</ele>
        <time>2015-09-20T10:43:40Z</time>
      </trkpt>
      <trkpt lat="43.72866" lon="6.95959">
        <ele>851.29</ele>
        <time>2015-09-20T10:43:42Z</time>
      </trkpt>
      <trkpt lat="43.72865" lon="6.95966">
        <ele>852.55</ele>
        <time>2015-09-20T10:43:50Z</time>
      </trkpt>
      <trkpt lat="43.72862" lon="6.95966">
        <ele>852.31</ele>
        <time>2015-09-20T10:44:02Z</time>
      </trkpt>
      <trkpt lat="43.72867" lon="6.95975">
        <ele>852.74</ele>
        <time>2015-09-20T10:44:44Z</time>
      </trkpt>
      <trkpt lat="43.72868" lon="6.95977">
        <ele>852.61</ele>
        <time>2015-09-20T10:44:49Z</time>
      </trkpt>
      <trkpt lat="43.72864" lon="6.95978">
        <ele>852.39</ele>
        <time>2015-09-20T10:45:07Z</time>
      </trkpt>
      <trkpt lat="43.72861" lon="6.95976">
        <ele>852.23</ele>
        <time>2015-09-20T10:45:12Z</time>
      </trkpt>
      <trkpt lat="43.72859" lon="6.95973">
        <ele>852.36</ele>
        <time>2015-09-20T10:45:17Z</time>
      </trkpt>
      <trkpt lat="43.72841" lon="6.95989">
        <ele>850.82</ele>
        <time>2015-09-20T10:46:19Z</time>
      </trkpt>
      <trkpt lat="43.72841" lon="6.95991">
        <ele>850.75</ele>
        <time>2015-09-20T10:46:20Z</time>
      </trkpt>
      <trkpt lat="43.7282" lon="6.9601">
        <ele>850.75</ele>
        <time>2015-09-20T10:46:44Z</time>
      </trkpt>
      <trkpt lat="43.728" lon="6.9603">
        <ele>850.6</ele>
        <time>2015-09-20T10:46:54Z</time>
      </trkpt>
      <trkpt lat="43.72789" lon="6.96046">
        <ele>852.27</ele>
        <time>2015-09-20T10:47:05Z</time>
      </trkpt>
      <trkpt lat="43.72783" lon="6.96059">
        <ele>853.44</ele>
        <time>2015-09-20T10:47:20Z</time>
      </trkpt>
      <trkpt lat="43.7278" lon="6.96065">
        <ele>853.28</ele>
        <time>2015-09-20T10:47:25Z</time>
      </trkpt>
      <trkpt lat="43.72773" lon="6.96082">
        <ele>853.27</ele>
        <time>2015-09-20T10:47:31Z</time>
      </trkpt>
      <trkpt lat="43.72771" lon="6.96087">
        <ele>854.09</ele>
        <time>2015-09-20T10:47:35Z</time>
      </trkpt>
      <trkpt lat="43.72757" lon="6.96108">
        <ele>854.18</ele>
        <time>2015-09-20T10:47:45Z</time>
      </trkpt>
      <trkpt lat="43.72749" lon="6.96119">
        <ele>854.83</ele>
        <time>2015-09-20T10:47:55Z</time>
      </trkpt>
      <trkpt lat="43.72739" lon="6.96142">
        <ele>856.31</ele>
        <time>2015-09-20T10:48:18Z</time>
      </trkpt>
      <trkpt lat="43.72732" lon="6.9617">
        <ele>858.76</ele>
        <time>2015-09-20T10:48:43Z</time>
      </trkpt>
      <trkpt lat="43.72727" lon="6.96196">
        <ele>861.59</ele>
        <time>2015-09-20T10:49:07Z</time>
      </trkpt>
      <trkpt lat="43.72726" lon="6.96219">
        <ele>864.74</ele>
        <time>2015-09-20T10:49:28Z</time>
      </trkpt>
      <trkpt lat="43.72725" lon="6.9624">
        <ele>867.24</ele>
        <time>2015-09-20T10:49:52Z</time>
      </trkpt>
      <trkpt lat="43.72731" lon="6.96266">
        <ele>871.57</ele>
        <time>2015-09-20T10:52:32Z</time>
      </trkpt>
      <trkpt lat="43.72729" lon="6.9627">
        <ele>871.15</ele>
        <time>2015-09-20T10:52:39Z</time>
      </trkpt>
      <trkpt lat="43.7273" lon="6.96253">
        <ele>871.26</ele>
        <time>2015-09-20T10:57:11Z</time>
      </trkpt>
      <trkpt lat="43.72729" lon="6.96252">
        <ele>870.37</ele>
        <time>2015-09-20T10:57:16Z</time>
      </trkpt>
      <trkpt lat="43.72731" lon="6.96244">
        <ele>870.95</ele>
        <time>2015-09-20T10:57:32Z</time>
      </trkpt>
      <trkpt lat="43.72739" lon="6.96221">
        <ele>872.28</ele>
        <time>2015-09-20T10:57:43Z</time>
      </trkpt>
      <trkpt lat="43.72742" lon="6.96211">
        <ele>872.78</ele>
        <time>2015-09-20T10:57:47Z</time>
      </trkpt>
      <trkpt lat="43.72748" lon="6.96201">
        <ele>873.38</ele>
        <time>2015-09-20T10:57:52Z</time>
      </trkpt>
      <trkpt lat="43.72767" lon="6.96163">
        <ele>875.51</ele>
        <time>2015-09-20T10:58:08Z</time>
      </trkpt>
      <trkpt lat="43.72789" lon="6.96134">
        <ele>877.51</ele>
        <time>2015-09-20T10:58:22Z</time>
      </trkpt>
      <trkpt lat="43.72817" lon="6.96109">
        <ele>879.82</ele>
        <time>2015-09-20T10:58:37Z</time>
      </trkpt>
      <trkpt lat="43.72846" lon="6.96089">
        <ele>882.1</ele>
        <time>2015-09-20T10:58:52Z</time>
      </trkpt>
      <trkpt lat="43.72877" lon="6.96069">
        <ele>884.47</ele>
        <time>2015-09-20T10:59:08Z</time>
      </trkpt>
      <trkpt lat="43.72911" lon="6.96048">
        <ele>886.62</ele>
        <time>2015-09-20T10:59:23Z</time>
      </trkpt>
      <trkpt lat="43.72947" lon="6.96028">
        <ele>888.99</ele>
        <time>2015-09-20T10:59:39Z</time>
      </trkpt>
      <trkpt lat="43.72985" lon="6.96006">
        <ele>891.48</ele>
        <time>2015-09-20T10:59:57Z</time>
      </trkpt>
      <trkpt lat="43.73016" lon="6.9599">
        <ele>893.93</ele>
        <time>2015-09-20T11:00:12Z</time>
      </trkpt>
      <trkpt lat="43.73058" lon="6.9598">
        <ele>897.04</ele>
        <time>2015-09-20T11:00:31Z</time>
      </trkpt>
      <trkpt lat="43.73092" lon="6.95965">
        <ele>899.24</ele>
        <time>2015-09-20T11:00:47Z</time>
      </trkpt>
      <trkpt lat="43.73128" lon="6.95938">
        <ele>901.97</ele>
        <time>2015-09-20T11:01:05Z</time>
      </trkpt>
      <trkpt lat="43.73161" lon="6.95916">
        <ele>904.55</ele>
        <time>2015-09-20T11:01:21Z</time>
      </trkpt>
      <trkpt lat="43.73197" lon="6.95888">
        <ele>907.41</ele>
        <time>2015-09-20T11:01:39Z</time>
      </trkpt>
      <trkpt lat="43.73228" lon="6.95854">
        <ele>909.95</ele>
        <time>2015-09-20T11:01:56Z</time>
      </trkpt>
      <trkpt lat="43.73262" lon="6.95818">
        <ele>913.05</ele>
        <time>2015-09-20T11:02:15Z</time>
      </trkpt>
      <trkpt lat="43.733" lon="6.9581">
        <ele>915.58</ele>
        <time>2015-09-20T11:02:32Z</time>
      </trkpt>
      <trkpt lat="43.73328" lon="6.95814">
        <ele>917.6</ele>
        <time>2015-09-20T11:02:45Z</time>
      </trkpt>
      <trkpt lat="43.73366" lon="6.95821">
        <ele>920.46</ele>
        <time>2015-09-20T11:03:02Z</time>
      </trkpt>
      <trkpt lat="43.73398" lon="6.95803">
        <ele>922.73</ele>
        <time>2015-09-20T11:03:18Z</time>
      </trkpt>
      <trkpt lat="43.73399" lon="6.95763">
        <ele>925.1</ele>
        <time>2015-09-20T11:03:31Z</time>
      </trkpt>
      <trkpt lat="43.73381" lon="6.95717">
        <ele>926.62</ele>
        <time>2015-09-20T11:03:46Z</time>
      </trkpt>
      <trkpt lat="43.7339" lon="6.95678">
        <ele>928.39</ele>
        <time>2015-09-20T11:03:59Z</time>
      </trkpt>
      <trkpt lat="43.7341" lon="6.95632">
        <ele>931.13</ele>
        <time>2015-09-20T11:04:16Z</time>
      </trkpt>
      <trkpt lat="43.73443" lon="6.95595">
        <ele>933.85</ele>
        <time>2015-09-20T11:04:34Z</time>
      </trkpt>
      <trkpt lat="43.7346" lon="6.95559">
        <ele>936.32</ele>
        <time>2015-09-20T11:04:48Z</time>
      </trkpt>
      <trkpt lat="43.73461" lon="6.95506">
        <ele>938.83</ele>
        <time>2015-09-20T11:05:05Z</time>
      </trkpt>
      <trkpt lat="43.7346" lon="6.9546">
        <ele>940.8</ele>
        <time>2015-09-20T11:05:20Z</time>
      </trkpt>
      <trkpt lat="43.73463" lon="6.95423">
        <ele>942.77</ele>
        <time>2015-09-20T11:05:33Z</time>
      </trkpt>
      <trkpt lat="43.73466" lon="6.95371">
        <ele>945.16</ele>
        <time>2015-09-20T11:05:50Z</time>
      </trkpt>
      <trkpt lat="43.73478" lon="6.95327">
        <ele>947.56</ele>
        <time>2015-09-20T11:06:05Z</time>
      </trkpt>
      <trkpt lat="43.73498" lon="6.95292">
        <ele>949.74</ele>
        <time>2015-09-20T11:06:19Z</time>
      </trkpt>
      <trkpt lat="43.73525" lon="6.95255">
        <ele>952.09</ele>
        <time>2015-09-20T11:06:36Z</time>
      </trkpt>
      <trkpt lat="43.73544" lon="6.95222">
        <ele>954.18</ele>
        <time>2015-09-20T11:06:50Z</time>
      </trkpt>
      <trkpt lat="43.73568" lon="6.95192">
        <ele>956.23</ele>
        <time>2015-09-20T11:07:05Z</time>
      </trkpt>
      <trkpt lat="43.73596" lon="6.9517">
        <ele>958.68</ele>
        <time>2015-09-20T11:07:19Z</time>
      </trkpt>
      <trkpt lat="43.73615" lon="6.95139">
        <ele>961.12</ele>
        <time>2015-09-20T11:07:34Z</time>
      </trkpt>
      <trkpt lat="43.736" lon="6.95113">
        <ele>962.98</ele>
        <time>2015-09-20T11:07:48Z</time>
      </trkpt>
      <trkpt lat="43.73564" lon="6.95109">
        <ele>965.07</ele>
        <time>2015-09-20T11:08:05Z</time>
      </trkpt>
      <trkpt lat="43.73529" lon="6.95109">
        <ele>967.21</ele>
        <time>2015-09-20T11:08:22Z</time>
      </trkpt>
      <trkpt lat="43.73497" lon="6.95111">
        <ele>969.37</ele>
        <time>2015-09-20T11:08:38Z</time>
      </trkpt>
      <trkpt lat="43.73461" lon="6.95109">
        <ele>972.27</ele>
        <time>2015-09-20T11:08:56Z</time>
      </trkpt>
      <trkpt lat="43.73432" lon="6.95098">
        <ele>974.49</ele>
        <time>2015-09-20T11:09:11Z</time>
      </trkpt>
      <trkpt lat="43.73397" lon="6.95092">
        <ele>977.18</ele>
        <time>2015-09-20T11:09:29Z</time>
      </trkpt>
      <trkpt lat="43.73377" lon="6.95115">
        <ele>979.37</ele>
        <time>2015-09-20T11:09:42Z</time>
      </trkpt>
      <trkpt lat="43.73355" lon="6.9515">
        <ele>981.59</ele>
        <time>2015-09-20T11:09:58Z</time>
      </trkpt>
      <trkpt lat="43.73325" lon="6.9518">
        <ele>984.22</ele>
        <time>2015-09-20T11:10:16Z</time>
      </trkpt>
      <trkpt lat="43.73291" lon="6.95193">
        <ele>987.05</ele>
        <time>2015-09-20T11:10:33Z</time>
      </trkpt>
      <trkpt lat="43.73261" lon="6.95189">
        <ele>989.08</ele>
        <time>2015-09-20T11:10:49Z</time>
      </trkpt>
      <trkpt lat="43.73233" lon="6.95183">
        <ele>991.28</ele>
        <time>2015-09-20T11:11:04Z</time>
      </trkpt>
      <trkpt lat="43.73206" lon="6.95179">
        <ele>993.56</ele>
        <time>2015-09-20T11:11:19Z</time>
      </trkpt>
      <trkpt lat="43.73185" lon="6.95184">
        <ele>995.29</ele>
        <time>2015-09-20T11:11:31Z</time>
      </trkpt>
      <trkpt lat="43.7317" lon="6.95211">
        <ele>996.98</ele>
        <time>2015-09-20T11:11:45Z</time>
      </trkpt>
      <trkpt lat="43.73169" lon="6.95248">
        <ele>999.07</ele>
        <time>2015-09-20T11:11:59Z</time>
      </trkpt>
      <trkpt lat="43.73163" lon="6.95291">
        <ele>1001.04</ele>
        <time>2015-09-20T11:12:16Z</time>
      </trkpt>
      <trkpt lat="43.73146" lon="6.95322">
        <ele>1003.24</ele>
        <time>2015-09-20T11:12:31Z</time>
      </trkpt>
      <trkpt lat="43.73119" lon="6.95347">
        <ele>1005.2</ele>
        <time>2015-09-20T11:12:48Z</time>
      </trkpt>
      <trkpt lat="43.73117" lon="6.95347">
        <ele>1005.43</ele>
        <time>2015-09-20T11:12:49Z</time>
      </trkpt>
      <trkpt lat="43.73115" lon="6.95316">
        <ele>1007.78</ele>
        <time>2015-09-20T11:13:01Z</time>
      </trkpt>
      <trkpt lat="43.73129" lon="6.95278">
        <ele>1009.81</ele>
        <time>2015-09-20T11:13:17Z</time>
      </trkpt>
      <trkpt lat="43.73133" lon="6.95255">
        <ele>1010.92</ele>
        <time>2015-09-20T11:13:26Z</time>
      </trkpt>
      <trkpt lat="43.73125" lon="6.95246">
        <ele>1011.37</ele>
        <time>2015-09-20T11:13:34Z</time>
      </trkpt>
      <trkpt lat="43.73118" lon="6.95249">
        <ele>1012.73</ele>
        <time>2015-09-20T11:13:39Z</time>
      </trkpt>
      <trkpt lat="43.73098" lon="6.95276">
        <ele>1014.66</ele>
        <time>2015-09-20T11:13:55Z</time>
      </trkpt>
      <trkpt lat="43.73073" lon="6.95294">
        <ele>1015.6</ele>
        <time>2015-09-20T11:14:12Z</time>
      </trkpt>
      <trkpt lat="43.73055" lon="6.95288">
        <ele>1017.78</ele>
        <time>2015-09-20T11:14:25Z</time>
      </trkpt>
      <trkpt lat="43.73031" lon="6.95276">
        <ele>1018.65</ele>
        <time>2015-09-20T11:14:41Z</time>
      </trkpt>
      <trkpt lat="43.73006" lon="6.95274">
        <ele>1019.96</ele>
        <time>2015-09-20T11:14:57Z</time>
      </trkpt>
      <trkpt lat="43.7298" lon="6.95267">
        <ele>1022.28</ele>
        <time>2015-09-20T11:15:13Z</time>
      </trkpt>
      <trkpt lat="43.72963" lon="6.95261">
        <ele>1024.88</ele>
        <time>2015-09-20T11:15:26Z</time>
      </trkpt>
      <trkpt lat="43.72959" lon="6.95257">
        <ele>1025.71</ele>
        <time>2015-09-20T11:15:30Z</time>
      </trkpt>
      <trkpt lat="43.72958" lon="6.95246">
        <ele>1026.21</ele>
        <time>2015-09-20T11:15:36Z</time>
      </trkpt>
      <trkpt lat="43.72968" lon="6.95222">
        <ele>1028.62</ele>
        <time>2015-09-20T11:15:51Z</time>
      </trkpt>
      <trkpt lat="43.72976" lon="6.95202">
        <ele>1030.74</ele>
        <time>2015-09-20T11:16:04Z</time>
      </trkpt>
      <trkpt lat="43.72995" lon="6.95183">
        <ele>1032.51</ele>
        <time>2015-09-20T11:16:21Z</time>
      </trkpt>
      <trkpt lat="43.72996" lon="6.9518">
        <ele>1032.82</ele>
        <time>2015-09-20T11:16:23Z</time>
      </trkpt>
      <trkpt lat="43.72998" lon="6.95168">
        <ele>1033.82</ele>
        <time>2015-09-20T11:16:30Z</time>
      </trkpt>
      <trkpt lat="43.72992" lon="6.95157">
        <ele>1034.56</ele>
        <time>2015-09-20T11:16:37Z</time>
      </trkpt>
      <trkpt lat="43.72974" lon="6.95149">
        <ele>1036.16</ele>
        <time>2015-09-20T11:16:51Z</time>
      </trkpt>
      <trkpt lat="43.72959" lon="6.9515">
        <ele>1037.79</ele>
        <time>2015-09-20T11:17:04Z</time>
      </trkpt>
      <trkpt lat="43.72938" lon="6.95144">
        <ele>1039.96</ele>
        <time>2015-09-20T11:17:20Z</time>
      </trkpt>
      <trkpt lat="43.72927" lon="6.95142">
        <ele>1041</ele>
        <time>2015-09-20T11:17:28Z</time>
      </trkpt>
      <trkpt lat="43.72922" lon="6.95143">
        <ele>1041.38</ele>
        <time>2015-09-20T11:17:32Z</time>
      </trkpt>
      <trkpt lat="43.72897" lon="6.95138">
        <ele>1043.8</ele>
        <time>2015-09-20T11:17:50Z</time>
      </trkpt>
      <trkpt lat="43.72884" lon="6.95125">
        <ele>1045.24</ele>
        <time>2015-09-20T11:18:02Z</time>
      </trkpt>
      <trkpt lat="43.72882" lon="6.95117">
        <ele>1045.49</ele>
        <time>2015-09-20T11:18:06Z</time>
      </trkpt>
      <trkpt lat="43.72886" lon="6.95112">
        <ele>1045.97</ele>
        <time>2015-09-20T11:18:10Z</time>
      </trkpt>
      <trkpt lat="43.72905" lon="6.9509">
        <ele>1048.16</ele>
        <time>2015-09-20T11:18:27Z</time>
      </trkpt>
      <trkpt lat="43.72927" lon="6.95068">
        <ele>1050.12</ele>
        <time>2015-09-20T11:18:45Z</time>
      </trkpt>
      <trkpt lat="43.72944" lon="6.95048">
        <ele>1051.49</ele>
        <time>2015-09-20T11:19:00Z</time>
      </trkpt>
      <trkpt lat="43.72963" lon="6.95025">
        <ele>1053.06</ele>
        <time>2015-09-20T11:19:16Z</time>
      </trkpt>
      <trkpt lat="43.72975" lon="6.95001">
        <ele>1055.57</ele>
        <time>2015-09-20T11:19:32Z</time>
      </trkpt>
      <trkpt lat="43.72987" lon="6.94977">
        <ele>1057.44</ele>
        <time>2015-09-20T11:19:46Z</time>
      </trkpt>
      <trkpt lat="43.72996" lon="6.94951">
        <ele>1059.04</ele>
        <time>2015-09-20T11:20:00Z</time>
      </trkpt>
      <trkpt lat="43.72993" lon="6.94942">
        <ele>1059.89</ele>
        <time>2015-09-20T11:20:06Z</time>
      </trkpt>
      <trkpt lat="43.72973" lon="6.94931">
        <ele>1062.35</ele>
        <time>2015-09-20T11:20:21Z</time>
      </trkpt>
      <trkpt lat="43.72969" lon="6.94931">
        <ele>1063.13</ele>
        <time>2015-09-20T11:20:24Z</time>
      </trkpt>
      <trkpt lat="43.7296" lon="6.9493">
        <ele>1064.04</ele>
        <time>2015-09-20T11:20:30Z</time>
      </trkpt>
      <trkpt lat="43.72933" lon="6.94929">
        <ele>1066.3</ele>
        <time>2015-09-20T11:20:48Z</time>
      </trkpt>
      <trkpt lat="43.72911" lon="6.94927">
        <ele>1068.35</ele>
        <time>2015-09-20T11:21:03Z</time>
      </trkpt>
      <trkpt lat="43.72888" lon="6.94927">
        <ele>1070.39</ele>
        <time>2015-09-20T11:21:18Z</time>
      </trkpt>
      <trkpt lat="43.72868" lon="6.94913">
        <ele>1072.38</ele>
        <time>2015-09-20T11:21:33Z</time>
      </trkpt>
      <trkpt lat="43.72854" lon="6.94896">
        <ele>1074.51</ele>
        <time>2015-09-20T11:21:46Z</time>
      </trkpt>
      <trkpt lat="43.72858" lon="6.94868">
        <ele>1076.88</ele>
        <time>2015-09-20T11:22:01Z</time>
      </trkpt>
      <trkpt lat="43.72854" lon="6.9485">
        <ele>1078.95</ele>
        <time>2015-09-20T11:22:13Z</time>
      </trkpt>
      <trkpt lat="43.72836" lon="6.94825">
        <ele>1080.75</ele>
        <time>2015-09-20T11:22:28Z</time>
      </trkpt>
      <trkpt lat="43.72837" lon="6.94789">
        <ele>1082.33</ele>
        <time>2015-09-20T11:22:44Z</time>
      </trkpt>
      <trkpt lat="43.72833" lon="6.94764">
        <ele>1085.18</ele>
        <time>2015-09-20T11:22:57Z</time>
      </trkpt>
      <trkpt lat="43.72823" lon="6.94742">
        <ele>1087.31</ele>
        <time>2015-09-20T11:23:10Z</time>
      </trkpt>
      <trkpt lat="43.7281" lon="6.94724">
        <ele>1089.6</ele>
        <time>2015-09-20T11:23:23Z</time>
      </trkpt>
      <trkpt lat="43.72798" lon="6.94698">
        <ele>1091.72</ele>
        <time>2015-09-20T11:23:38Z</time>
      </trkpt>
      <trkpt lat="43.72793" lon="6.94668">
        <ele>1093.5</ele>
        <time>2015-09-20T11:23:53Z</time>
      </trkpt>
      <trkpt lat="43.72786" lon="6.94643">
        <ele>1095.56</ele>
        <time>2015-09-20T11:24:08Z</time>
      </trkpt>
      <trkpt lat="43.72785" lon="6.9464">
        <ele>1095.84</ele>
        <time>2015-09-20T11:24:14Z</time>
      </trkpt>
      <trkpt lat="43.72784" lon="6.94623">
        <ele>1097.01</ele>
        <time>2015-09-20T11:27:18Z</time>
      </trkpt>
      <trkpt lat="43.72781" lon="6.94609">
        <ele>1098.14</ele>
        <time>2015-09-20T11:27:25Z</time>
      </trkpt>
      <trkpt lat="43.7279" lon="6.94594">
        <ele>1099.66</ele>
        <time>2015-09-20T11:27:34Z</time>
      </trkpt>
      <trkpt lat="43.72814" lon="6.94578">
        <ele>1101.58</ele>
        <time>2015-09-20T11:27:50Z</time>
      </trkpt>
      <trkpt lat="43.72829" lon="6.94567">
        <ele>1103.67</ele>
        <time>2015-09-20T11:28:03Z</time>
      </trkpt>
      <trkpt lat="43.72829" lon="6.94566">
        <ele>1103.67</ele>
        <time>2015-09-20T11:28:06Z</time>
      </trkpt>
      <trkpt lat="43.72812" lon="6.94578">
        <ele>1103.48</ele>
        <time>2015-09-20T12:04:17Z</time>
      </trkpt>
      <trkpt lat="43.72806" lon="6.94582">
        <ele>1102.65</ele>
        <time>2015-09-20T12:04:18Z</time>
      </trkpt>
      <trkpt lat="43.72793" lon="6.94601">
        <ele>1100.42</ele>
        <time>2015-09-20T12:04:21Z</time>
      </trkpt>
      <trkpt lat="43.72801" lon="6.94649">
        <ele>1096.84</ele>
        <time>2015-09-20T12:04:26Z</time>
      </trkpt>
      <trkpt lat="43.72824" lon="6.94703">
        <ele>1094.54</ele>
        <time>2015-09-20T12:04:32Z</time>
      </trkpt>
      <trkpt lat="43.72855" lon="6.9475">
        <ele>1091.35</ele>
        <time>2015-09-20T12:04:38Z</time>
      </trkpt>
      <trkpt lat="43.72879" lon="6.94761">
        <ele>1091.23</ele>
        <time>2015-09-20T12:04:42Z</time>
      </trkpt>
      <trkpt lat="43.72906" lon="6.94782">
        <ele>1088.39</ele>
        <time>2015-09-20T12:04:48Z</time>
      </trkpt>
      <trkpt lat="43.72928" lon="6.94786">
        <ele>1085.02</ele>
        <time>2015-09-20T12:04:53Z</time>
      </trkpt>
      <trkpt lat="43.72939" lon="6.94793">
        <ele>1081.99</ele>
        <time>2015-09-20T12:04:56Z</time>
      </trkpt>
      <trkpt lat="43.72955" lon="6.94798">
        <ele>1078.28</ele>
        <time>2015-09-20T12:05:00Z</time>
      </trkpt>
      <trkpt lat="43.72966" lon="6.94818">
        <ele>1073.73</ele>
        <time>2015-09-20T12:05:04Z</time>
      </trkpt>
      <trkpt lat="43.72981" lon="6.9485">
        <ele>1070.54</ele>
        <time>2015-09-20T12:05:10Z</time>
      </trkpt>
      <trkpt lat="43.73004" lon="6.94889">
        <ele>1066.15</ele>
        <time>2015-09-20T12:05:17Z</time>
      </trkpt>
      <trkpt lat="43.73008" lon="6.94896">
        <ele>1065.18</ele>
        <time>2015-09-20T12:05:18Z</time>
      </trkpt>
      <trkpt lat="43.73011" lon="6.94908">
        <ele>1064.45</ele>
        <time>2015-09-20T12:05:20Z</time>
      </trkpt>
      <trkpt lat="43.73014" lon="6.9494">
        <ele>1062.27</ele>
        <time>2015-09-20T12:05:25Z</time>
      </trkpt>
      <trkpt lat="43.73011" lon="6.94964">
        <ele>1059.44</ele>
        <time>2015-09-20T12:05:30Z</time>
      </trkpt>
      <trkpt lat="43.73001" lon="6.9499">
        <ele>1058.12</ele>
        <time>2015-09-20T12:05:36Z</time>
      </trkpt>
      <trkpt lat="43.73003" lon="6.95036">
        <ele>1053.99</ele>
        <time>2015-09-20T12:05:44Z</time>
      </trkpt>
      <trkpt lat="43.73" lon="6.9504">
        <ele>1053.41</ele>
        <time>2015-09-20T12:05:45Z</time>
      </trkpt>
      <trkpt lat="43.72991" lon="6.95062">
        <ele>1049.87</ele>
        <time>2015-09-20T12:05:50Z</time>
      </trkpt>
      <trkpt lat="43.72995" lon="6.95099">
        <ele>1046.86</ele>
        <time>2015-09-20T12:05:57Z</time>
      </trkpt>
      <trkpt lat="43.72989" lon="6.95115">
        <ele>1045.21</ele>
        <time>2015-09-20T12:06:03Z</time>
      </trkpt>
      <trkpt lat="43.72996" lon="6.95124">
        <ele>1044.04</ele>
        <time>2015-09-20T12:06:05Z</time>
      </trkpt>
      <trkpt lat="43.73022" lon="6.95143">
        <ele>1040.52</ele>
        <time>2015-09-20T12:06:10Z</time>
      </trkpt>
      <trkpt lat="43.73028" lon="6.95172">
        <ele>1037.38</ele>
        <time>2015-09-20T12:06:16Z</time>
      </trkpt>
      <trkpt lat="43.7303" lon="6.95182">
        <ele>1035.84</ele>
        <time>2015-09-20T12:06:18Z</time>
      </trkpt>
      <trkpt lat="43.73038" lon="6.95201">
        <ele>1033.11</ele>
        <time>2015-09-20T12:06:21Z</time>
      </trkpt>
      <trkpt lat="43.73038" lon="6.95233">
        <ele>1028.57</ele>
        <time>2015-09-20T12:06:25Z</time>
      </trkpt>
      <trkpt lat="43.73037" lon="6.95251">
        <ele>1025.27</ele>
        <time>2015-09-20T12:06:27Z</time>
      </trkpt>
      <trkpt lat="43.73025" lon="6.95284">
        <ele>1021.68</ele>
        <time>2015-09-20T12:06:31Z</time>
      </trkpt>
      <trkpt lat="43.73022" lon="6.95304">
        <ele>1020.68</ele>
        <time>2015-09-20T12:06:33Z</time>
      </trkpt>
      <trkpt lat="43.73039" lon="6.95309">
        <ele>1019.75</ele>
        <time>2015-09-20T12:06:38Z</time>
      </trkpt>
      <trkpt lat="43.73047" lon="6.95307">
        <ele>1020.77</ele>
        <time>2015-09-20T12:06:40Z</time>
      </trkpt>
      <trkpt lat="43.7307" lon="6.95305">
        <ele>1021.48</ele>
        <time>2015-09-20T12:06:48Z</time>
      </trkpt>
      <trkpt lat="43.7309" lon="6.95324">
        <ele>1019.46</ele>
        <time>2015-09-20T12:06:53Z</time>
      </trkpt>
      <trkpt lat="43.73098" lon="6.9533">
        <ele>1016.07</ele>
        <time>2015-09-20T12:06:55Z</time>
      </trkpt>
      <trkpt lat="43.73105" lon="6.95351">
        <ele>1012</ele>
        <time>2015-09-20T12:06:59Z</time>
      </trkpt>
      <trkpt lat="43.73105" lon="6.95357">
        <ele>1010.79</ele>
        <time>2015-09-20T12:07:00Z</time>
      </trkpt>
      <trkpt lat="43.73094" lon="6.95382">
        <ele>1006.45</ele>
        <time>2015-09-20T12:07:04Z</time>
      </trkpt>
      <trkpt lat="43.73085" lon="6.95402">
        <ele>1003.46</ele>
        <time>2015-09-20T12:07:07Z</time>
      </trkpt>
      <trkpt lat="43.73093" lon="6.95421">
        <ele>1000.98</ele>
        <time>2015-09-20T12:07:12Z</time>
      </trkpt>
      <trkpt lat="43.7309" lon="6.95427">
        <ele>1000.7</ele>
        <time>2015-09-20T12:07:13Z</time>
      </trkpt>
      <trkpt lat="43.73084" lon="6.95438">
        <ele>997.93</ele>
        <time>2015-09-20T12:07:15Z</time>
      </trkpt>
      <trkpt lat="43.73077" lon="6.95452">
        <ele>995.68</ele>
        <time>2015-09-20T12:07:17Z</time>
      </trkpt>
      <trkpt lat="43.73067" lon="6.95464">
        <ele>993.27</ele>
        <time>2015-09-20T12:07:19Z</time>
      </trkpt>
      <trkpt lat="43.7305" lon="6.95496">
        <ele>988.95</ele>
        <time>2015-09-20T12:07:24Z</time>
      </trkpt>
      <trkpt lat="43.73039" lon="6.95514">
        <ele>985.62</ele>
        <time>2015-09-20T12:07:28Z</time>
      </trkpt>
      <trkpt lat="43.73022" lon="6.95522">
        <ele>984.25</ele>
        <time>2015-09-20T12:07:31Z</time>
      </trkpt>
      <trkpt lat="43.73003" lon="6.95519">
        <ele>981.86</ele>
        <time>2015-09-20T12:07:35Z</time>
      </trkpt>
      <trkpt lat="43.72994" lon="6.95517">
        <ele>980.3</ele>
        <time>2015-09-20T12:07:39Z</time>
      </trkpt>
      <trkpt lat="43.72982" lon="6.95522">
        <ele>976.3</ele>
        <time>2015-09-20T12:07:45Z</time>
      </trkpt>
      <trkpt lat="43.72976" lon="6.95524">
        <ele>974.62</ele>
        <time>2015-09-20T12:07:48Z</time>
      </trkpt>
      <trkpt lat="43.72967" lon="6.95526">
        <ele>971.01</ele>
        <time>2015-09-20T12:07:53Z</time>
      </trkpt>
      <trkpt lat="43.72966" lon="6.95527">
        <ele>970.77</ele>
        <time>2015-09-20T12:07:54Z</time>
      </trkpt>
      <trkpt lat="43.72954" lon="6.95531">
        <ele>967.52</ele>
        <time>2015-09-20T12:08:01Z</time>
      </trkpt>
      <trkpt lat="43.72948" lon="6.95532">
        <ele>964.39</ele>
        <time>2015-09-20T12:08:04Z</time>
      </trkpt>
      <trkpt lat="43.72936" lon="6.95534">
        <ele>961.14</ele>
        <time>2015-09-20T12:08:08Z</time>
      </trkpt>
      <trkpt lat="43.72924" lon="6.95535">
        <ele>957.42</ele>
        <time>2015-09-20T12:08:12Z</time>
      </trkpt>
      <trkpt lat="43.72914" lon="6.9554">
        <ele>954.04</ele>
        <time>2015-09-20T12:08:16Z</time>
      </trkpt>
      <trkpt lat="43.72902" lon="6.95544">
        <ele>950.59</ele>
        <time>2015-09-20T12:08:20Z</time>
      </trkpt>
      <trkpt lat="43.72892" lon="6.9555">
        <ele>947.08</ele>
        <time>2015-09-20T12:08:24Z</time>
      </trkpt>
      <trkpt lat="43.7288" lon="6.95557">
        <ele>943.57</ele>
        <time>2015-09-20T12:08:28Z</time>
      </trkpt>
      <trkpt lat="43.72871" lon="6.95561">
        <ele>940.42</ele>
        <time>2015-09-20T12:08:31Z</time>
      </trkpt>
      <trkpt lat="43.72861" lon="6.9557">
        <ele>936.79</ele>
        <time>2015-09-20T12:08:34Z</time>
      </trkpt>
      <trkpt lat="43.72853" lon="6.95579">
        <ele>932.48</ele>
        <time>2015-09-20T12:08:37Z</time>
      </trkpt>
      <trkpt lat="43.7285" lon="6.95586">
        <ele>930.35</ele>
        <time>2015-09-20T12:08:39Z</time>
      </trkpt>
      <trkpt lat="43.72844" lon="6.95609">
        <ele>926.29</ele>
        <time>2015-09-20T12:08:44Z</time>
      </trkpt>
      <trkpt lat="43.72841" lon="6.95629">
        <ele>922.77</ele>
        <time>2015-09-20T12:08:48Z</time>
      </trkpt>
      <trkpt lat="43.72841" lon="6.95633">
        <ele>922.3</ele>
        <time>2015-09-20T12:08:49Z</time>
      </trkpt>
      <trkpt lat="43.7284" lon="6.95652">
        <ele>918.78</ele>
        <time>2015-09-20T12:08:53Z</time>
      </trkpt>
      <trkpt lat="43.7284" lon="6.95657">
        <ele>917.91</ele>
        <time>2015-09-20T12:08:54Z</time>
      </trkpt>
      <trkpt lat="43.72841" lon="6.95669">
        <ele>916.54</ele>
        <time>2015-09-20T12:08:56Z</time>
      </trkpt>
      <trkpt lat="43.72836" lon="6.95688">
        <ele>912</ele>
        <time>2015-09-20T12:09:01Z</time>
      </trkpt>
      <trkpt lat="43.72828" lon="6.95675">
        <ele>908.89</ele>
        <time>2015-09-20T12:09:05Z</time>
      </trkpt>
      <trkpt lat="43.72818" lon="6.95652">
        <ele>906.18</ele>
        <time>2015-09-20T12:09:10Z</time>
      </trkpt>
      <trkpt lat="43.72815" lon="6.95645">
        <ele>905.78</ele>
        <time>2015-09-20T12:09:12Z</time>
      </trkpt>
      <trkpt lat="43.72808" lon="6.95625">
        <ele>902.32</ele>
        <time>2015-09-20T12:09:19Z</time>
      </trkpt>
      <trkpt lat="43.72796" lon="6.95629">
        <ele>898.18</ele>
        <time>2015-09-20T12:09:25Z</time>
      </trkpt>
      <trkpt lat="43.7278" lon="6.95628">
        <ele>894.67</ele>
        <time>2015-09-20T12:09:29Z</time>
      </trkpt>
      <trkpt lat="43.72767" lon="6.95631">
        <ele>889.76</ele>
        <time>2015-09-20T12:09:33Z</time>
      </trkpt>
      <trkpt lat="43.72753" lon="6.9562">
        <ele>886.64</ele>
        <time>2015-09-20T12:09:37Z</time>
      </trkpt>
      <trkpt lat="43.72742" lon="6.95629">
        <ele>883.8</ele>
        <time>2015-09-20T12:09:43Z</time>
      </trkpt>
      <trkpt lat="43.72735" lon="6.95633">
        <ele>880.55</ele>
        <time>2015-09-20T12:09:45Z</time>
      </trkpt>
      <trkpt lat="43.7273" lon="6.95633">
        <ele>879.36</ele>
        <time>2015-09-20T12:09:46Z</time>
      </trkpt>
      <trkpt lat="43.72716" lon="6.95635">
        <ele>875.53</ele>
        <time>2015-09-20T12:09:50Z</time>
      </trkpt>
      <trkpt lat="43.72713" lon="6.95636">
        <ele>874.21</ele>
        <time>2015-09-20T12:09:51Z</time>
      </trkpt>
      <trkpt lat="43.72702" lon="6.95645">
        <ele>869.51</ele>
        <time>2015-09-20T12:09:55Z</time>
      </trkpt>
      <trkpt lat="43.72692" lon="6.9567">
        <ele>864.98</ele>
        <time>2015-09-20T12:09:59Z</time>
      </trkpt>
      <trkpt lat="43.72684" lon="6.95686">
        <ele>862.62</ele>
        <time>2015-09-20T12:10:01Z</time>
      </trkpt>
      <trkpt lat="43.72683" lon="6.95709">
        <ele>863.16</ele>
        <time>2015-09-20T12:10:05Z</time>
      </trkpt>
      <trkpt lat="43.72682" lon="6.95738">
        <ele>859.94</ele>
        <time>2015-09-20T12:10:09Z</time>
      </trkpt>
      <trkpt lat="43.72673" lon="6.95753">
        <ele>856.34</ele>
        <time>2015-09-20T12:10:12Z</time>
      </trkpt>
      <trkpt lat="43.72655" lon="6.95764">
        <ele>853.25</ele>
        <time>2015-09-20T12:10:16Z</time>
      </trkpt>
      <trkpt lat="43.72634" lon="6.95752">
        <ele>849.54</ele>
        <time>2015-09-20T12:10:20Z</time>
      </trkpt>
      <trkpt lat="43.72629" lon="6.95746">
        <ele>849.64</ele>
        <time>2015-09-20T12:10:21Z</time>
      </trkpt>
      <trkpt lat="43.72603" lon="6.95711">
        <ele>851.43</ele>
        <time>2015-09-20T12:10:30Z</time>
      </trkpt>
      <trkpt lat="43.72603" lon="6.95712">
        <ele>851.87</ele>
        <time>2015-09-20T12:10:31Z</time>
      </trkpt>
      <trkpt lat="43.72607" lon="6.95737">
        <ele>852.91</ele>
        <time>2015-09-20T12:10:39Z</time>
      </trkpt>
      <trkpt lat="43.72602" lon="6.95769">
        <ele>850.58</ele>
        <time>2015-09-20T12:10:43Z</time>
      </trkpt>
      <trkpt lat="43.72594" lon="6.95794">
        <ele>849.85</ele>
        <time>2015-09-20T12:10:46Z</time>
      </trkpt>
      <trkpt lat="43.7259" lon="6.95835">
        <ele>845.69</ele>
        <time>2015-09-20T12:10:52Z</time>
      </trkpt>
      <trkpt lat="43.72573" lon="6.95854">
        <ele>839.99</ele>
        <time>2015-09-20T12:10:57Z</time>
      </trkpt>
      <trkpt lat="43.7257" lon="6.95855">
        <ele>839.39</ele>
        <time>2015-09-20T12:10:58Z</time>
      </trkpt>
      <trkpt lat="43.72555" lon="6.95861">
        <ele>837.56</ele>
        <time>2015-09-20T12:11:02Z</time>
      </trkpt>
      <trkpt lat="43.72539" lon="6.95867">
        <ele>834.71</ele>
        <time>2015-09-20T12:11:06Z</time>
      </trkpt>
      <trkpt lat="43.72543" lon="6.95892">
        <ele>833.68</ele>
        <time>2015-09-20T12:11:11Z</time>
      </trkpt>
      <trkpt lat="43.72545" lon="6.95909">
        <ele>831.76</ele>
        <time>2015-09-20T12:11:14Z</time>
      </trkpt>
      <trkpt lat="43.72553" lon="6.95921">
        <ele>832.32</ele>
        <time>2015-09-20T12:11:17Z</time>
      </trkpt>
      <trkpt lat="43.72544" lon="6.95944">
        <ele>829.69</ele>
        <time>2015-09-20T12:11:21Z</time>
      </trkpt>
      <trkpt lat="43.72524" lon="6.95969">
        <ele>825.82</ele>
        <time>2015-09-20T12:11:25Z</time>
      </trkpt>
      <trkpt lat="43.72505" lon="6.95985">
        <ele>824.17</ele>
        <time>2015-09-20T12:11:28Z</time>
      </trkpt>
      <trkpt lat="43.72488" lon="6.96018">
        <ele>822.28</ele>
        <time>2015-09-20T12:11:32Z</time>
      </trkpt>
      <trkpt lat="43.7248" lon="6.96072">
        <ele>821.58</ele>
        <time>2015-09-20T12:11:38Z</time>
      </trkpt>
      <trkpt lat="43.72468" lon="6.96098">
        <ele>819.05</ele>
        <time>2015-09-20T12:11:44Z</time>
      </trkpt>
      <trkpt lat="43.72451" lon="6.96141">
        <ele>813.86</ele>
        <time>2015-09-20T12:11:49Z</time>
      </trkpt>
      <trkpt lat="43.72448" lon="6.96151">
        <ele>813.08</ele>
        <time>2015-09-20T12:11:50Z</time>
      </trkpt>
      <trkpt lat="43.72441" lon="6.96169">
        <ele>812.63</ele>
        <time>2015-09-20T12:11:52Z</time>
      </trkpt>
      <trkpt lat="43.72416" lon="6.96184">
        <ele>806.67</ele>
        <time>2015-09-20T12:11:56Z</time>
      </trkpt>
      <trkpt lat="43.72393" lon="6.96172">
        <ele>803.27</ele>
        <time>2015-09-20T12:11:59Z</time>
      </trkpt>
      <trkpt lat="43.72385" lon="6.96168">
        <ele>802.61</ele>
        <time>2015-09-20T12:12:00Z</time>
      </trkpt>
      <trkpt lat="43.72369" lon="6.96161">
        <ele>802.91</ele>
        <time>2015-09-20T12:12:02Z</time>
      </trkpt>
      <trkpt lat="43.72351" lon="6.96174">
        <ele>803.04</ele>
        <time>2015-09-20T12:12:06Z</time>
      </trkpt>
      <trkpt lat="43.72348" lon="6.96191">
        <ele>803.63</ele>
        <time>2015-09-20T12:12:08Z</time>
      </trkpt>
      <trkpt lat="43.72351" lon="6.96229">
        <ele>803.44</ele>
        <time>2015-09-20T12:12:12Z</time>
      </trkpt>
      <trkpt lat="43.72355" lon="6.96248">
        <ele>802.84</ele>
        <time>2015-09-20T12:12:14Z</time>
      </trkpt>
      <trkpt lat="43.72354" lon="6.96283">
        <ele>798.15</ele>
        <time>2015-09-20T12:12:18Z</time>
      </trkpt>
      <trkpt lat="43.7235" lon="6.96301">
        <ele>797.34</ele>
        <time>2015-09-20T12:12:20Z</time>
      </trkpt>
      <trkpt lat="43.72336" lon="6.9632">
        <ele>794.28</ele>
        <time>2015-09-20T12:12:23Z</time>
      </trkpt>
      <trkpt lat="43.7233" lon="6.96321">
        <ele>793.52</ele>
        <time>2015-09-20T12:12:24Z</time>
      </trkpt>
      <trkpt lat="43.72323" lon="6.9635">
        <ele>788.42</ele>
        <time>2015-09-20T12:12:30Z</time>
      </trkpt>
      <trkpt lat="43.72338" lon="6.96369">
        <ele>785.97</ele>
        <time>2015-09-20T12:12:34Z</time>
      </trkpt>
      <trkpt lat="43.72338" lon="6.96386">
        <ele>781.97</ele>
        <time>2015-09-20T12:12:37Z</time>
      </trkpt>
      <trkpt lat="43.72325" lon="6.96401">
        <ele>778.46</ele>
        <time>2015-09-20T12:12:40Z</time>
      </trkpt>
      <trkpt lat="43.72311" lon="6.96404">
        <ele>775.8</ele>
        <time>2015-09-20T12:12:42Z</time>
      </trkpt>
      <trkpt lat="43.72278" lon="6.96413">
        <ele>771.83</ele>
        <time>2015-09-20T12:12:46Z</time>
      </trkpt>
      <trkpt lat="43.72251" lon="6.96428">
        <ele>768.22</ele>
        <time>2015-09-20T12:12:49Z</time>
      </trkpt>
      <trkpt lat="43.72231" lon="6.96438">
        <ele>767.06</ele>
        <time>2015-09-20T12:12:51Z</time>
      </trkpt>
      <trkpt lat="43.72202" lon="6.96454">
        <ele>769.33</ele>
        <time>2015-09-20T12:12:57Z</time>
      </trkpt>
      <trkpt lat="43.72202" lon="6.96452">
        <ele>769.58</ele>
        <time>2015-09-20T12:12:58Z</time>
      </trkpt>
      <trkpt lat="43.72203" lon="6.96451">
        <ele>769.94</ele>
        <time>2015-09-20T12:13:00Z</time>
      </trkpt>
      <trkpt lat="43.72204" lon="6.96433">
        <ele>770.19</ele>
        <time>2015-09-20T12:13:16Z</time>
      </trkpt>
      <trkpt lat="43.72199" lon="6.96413">
        <ele>768.05</ele>
        <time>2015-09-20T12:16:30Z</time>
      </trkpt>
      <trkpt lat="43.72198" lon="6.96414">
        <ele>768.26</ele>
        <time>2015-09-20T12:16:33Z</time>
      </trkpt>
    </trkseg>
  </trk>
</gpx>